<?xml version="1.0" encoding="UTF-8"?>
<gpx version="1.1" creator="https://www.youtrack.es" xsi:schemaLocation="http://www.topografix.com/GPX/1/1 http://www.topografix.com/GPX/1/1/gpx.xsd http://www.garmin.com/xmlschemas/GpxExtensions/v3 http://www.garmin.com/xmlschemas/GpxExtensionsv3.xsd http://www.garmin.com/xmlschemas/TrackPointExtension/v1 http://www.garmin.com/xmlschemas/TrackPointExtensionv1.xsd" xmlns:gpxtpx="http://www.garmin.com/xmlschemas/TrackPointExtension/v1" xmlns:gpxx="http://www.garmin.com/xmlschemas/GpxExtensions/v3" xmlns:xsi="http://www.w3.org/2001/XMLSchema-instance">
  <metadata>
    <link href="https://www.youtrack.es">
      <text>YouTrack.es</text>
    </link>
    <time>2026-05-10T17:13:17Z</time>
  </metadata>
  <trk>
    <src>https://www.youtrack.es</src>
    <link href="https://www.youtrack.es/ruta/760-colmenar">
      <text>YouTrack.es</text>
    </link>
    <trkseg>
      <trkpt lat="40.646864000" lon="-3.785504000">
        <ele>828.337000</ele>
        <time>2017-05-26T00:22:44Z</time>
      </trkpt>
      <trkpt lat="40.646876000" lon="-3.785589000">
        <ele>828.949000</ele>
        <time>2017-05-26T00:23:04Z</time>
      </trkpt>
      <trkpt lat="40.647141000" lon="-3.785595000">
        <ele>829.813000</ele>
        <time>2017-05-26T00:23:24Z</time>
      </trkpt>
      <trkpt lat="40.647206000" lon="-3.785659000">
        <ele>830.308000</ele>
        <time>2017-05-26T00:23:44Z</time>
      </trkpt>
      <trkpt lat="40.647210000" lon="-3.785852000">
        <ele>831.014000</ele>
        <time>2017-05-26T00:24:04Z</time>
      </trkpt>
      <trkpt lat="40.647202000" lon="-3.787891000">
        <ele>839.990000</ele>
        <time>2017-05-26T00:24:24Z</time>
      </trkpt>
      <trkpt lat="40.647299000" lon="-3.787993000">
        <ele>840.622000</ele>
        <time>2017-05-26T00:24:44Z</time>
      </trkpt>
      <trkpt lat="40.647308000" lon="-3.788395000">
        <ele>841.115000</ele>
        <time>2017-05-26T00:25:04Z</time>
      </trkpt>
      <trkpt lat="40.648122000" lon="-3.788400000">
        <ele>844.518000</ele>
        <time>2017-05-26T00:25:24Z</time>
      </trkpt>
      <trkpt lat="40.648166000" lon="-3.788465000">
        <ele>844.924000</ele>
        <time>2017-05-26T00:25:44Z</time>
      </trkpt>
      <trkpt lat="40.648301000" lon="-3.788395000">
        <ele>845.198000</ele>
        <time>2017-05-26T00:26:04Z</time>
      </trkpt>
      <trkpt lat="40.649090000" lon="-3.788411000">
        <ele>850.061000</ele>
        <time>2017-05-26T00:26:24Z</time>
      </trkpt>
      <trkpt lat="40.650096000" lon="-3.788341000">
        <ele>850.044000</ele>
        <time>2017-05-26T00:26:44Z</time>
      </trkpt>
      <trkpt lat="40.651101000" lon="-3.788416000">
        <ele>850.005000</ele>
        <time>2017-05-26T00:27:04Z</time>
      </trkpt>
      <trkpt lat="40.652143000" lon="-3.788470000">
        <ele>850.515000</ele>
        <time>2017-05-26T00:27:24Z</time>
      </trkpt>
      <trkpt lat="40.652737000" lon="-3.788432000">
        <ele>850.908000</ele>
        <time>2017-05-26T00:27:44Z</time>
      </trkpt>
      <trkpt lat="40.652997000" lon="-3.788406000">
        <ele>851.225000</ele>
        <time>2017-05-26T00:28:04Z</time>
      </trkpt>
      <trkpt lat="40.653083000" lon="-3.788540000">
        <ele>851.781000</ele>
        <time>2017-05-26T00:28:24Z</time>
      </trkpt>
      <trkpt lat="40.653063000" lon="-3.788706000">
        <ele>852.373000</ele>
        <time>2017-05-26T00:28:44Z</time>
      </trkpt>
      <trkpt lat="40.652977000" lon="-3.788947000">
        <ele>852.726000</ele>
        <time>2017-05-26T00:29:04Z</time>
      </trkpt>
      <trkpt lat="40.652814000" lon="-3.789248000">
        <ele>852.429000</ele>
        <time>2017-05-26T00:29:24Z</time>
      </trkpt>
      <trkpt lat="40.652464000" lon="-3.789838000">
        <ele>852.975000</ele>
        <time>2017-05-26T00:29:44Z</time>
      </trkpt>
      <trkpt lat="40.652692000" lon="-3.790079000">
        <ele>854.059000</ele>
        <time>2017-05-26T00:30:04Z</time>
      </trkpt>
      <trkpt lat="40.652941000" lon="-3.790144000">
        <ele>855.192000</ele>
        <time>2017-05-26T00:30:24Z</time>
      </trkpt>
      <trkpt lat="40.654503000" lon="-3.790165000">
        <ele>860.072000</ele>
        <time>2017-05-26T00:30:44Z</time>
      </trkpt>
      <trkpt lat="40.655346000" lon="-3.790112000">
        <ele>860.013000</ele>
        <time>2017-05-26T00:31:04Z</time>
      </trkpt>
      <trkpt lat="40.655667000" lon="-3.790095000">
        <ele>860.014000</ele>
        <time>2017-05-26T00:31:24Z</time>
      </trkpt>
      <trkpt lat="40.656103000" lon="-3.790036000">
        <ele>860.008000</ele>
        <time>2017-05-26T00:31:44Z</time>
      </trkpt>
      <trkpt lat="40.657576000" lon="-3.789902000">
        <ele>861.428000</ele>
        <time>2017-05-26T00:32:04Z</time>
      </trkpt>
      <trkpt lat="40.658894000" lon="-3.789784000">
        <ele>867.894000</ele>
        <time>2017-05-26T00:32:24Z</time>
      </trkpt>
      <trkpt lat="40.659598000" lon="-3.789656000">
        <ele>869.766000</ele>
        <time>2017-05-26T00:32:44Z</time>
      </trkpt>
      <trkpt lat="40.659932000" lon="-3.789484000">
        <ele>870.069000</ele>
        <time>2017-05-26T00:33:04Z</time>
      </trkpt>
      <trkpt lat="40.660616000" lon="-3.789146000">
        <ele>870.012000</ele>
        <time>2017-05-26T00:33:24Z</time>
      </trkpt>
      <trkpt lat="40.660811000" lon="-3.788980000">
        <ele>870.648000</ele>
        <time>2017-05-26T00:33:44Z</time>
      </trkpt>
      <trkpt lat="40.660949000" lon="-3.788856000">
        <ele>871.032000</ele>
        <time>2017-05-26T00:34:04Z</time>
      </trkpt>
      <trkpt lat="40.661108000" lon="-3.788765000">
        <ele>871.075000</ele>
        <time>2017-05-26T00:34:24Z</time>
      </trkpt>
      <trkpt lat="40.661255000" lon="-3.788636000">
        <ele>871.088000</ele>
        <time>2017-05-26T00:34:44Z</time>
      </trkpt>
      <trkpt lat="40.661389000" lon="-3.788465000">
        <ele>871.524000</ele>
        <time>2017-05-26T00:35:04Z</time>
      </trkpt>
      <trkpt lat="40.661548000" lon="-3.788293000">
        <ele>872.126000</ele>
        <time>2017-05-26T00:35:24Z</time>
      </trkpt>
      <trkpt lat="40.662781000" lon="-3.787435000">
        <ele>876.008000</ele>
        <time>2017-05-26T00:35:44Z</time>
      </trkpt>
      <trkpt lat="40.663367000" lon="-3.787097000">
        <ele>878.659000</ele>
        <time>2017-05-26T00:36:04Z</time>
      </trkpt>
      <trkpt lat="40.663684000" lon="-3.786920000">
        <ele>880.725000</ele>
        <time>2017-05-26T00:36:24Z</time>
      </trkpt>
      <trkpt lat="40.663883000" lon="-3.786839000">
        <ele>882.737000</ele>
        <time>2017-05-26T00:36:44Z</time>
      </trkpt>
      <trkpt lat="40.664294000" lon="-3.786898000">
        <ele>882.970000</ele>
        <time>2017-05-26T00:37:04Z</time>
      </trkpt>
      <trkpt lat="40.664526000" lon="-3.786979000">
        <ele>883.013000</ele>
        <time>2017-05-26T00:37:24Z</time>
      </trkpt>
      <trkpt lat="40.664681000" lon="-3.786904000">
        <ele>884.399000</ele>
        <time>2017-05-26T00:37:44Z</time>
      </trkpt>
      <trkpt lat="40.664787000" lon="-3.786748000">
        <ele>886.443000</ele>
        <time>2017-05-26T00:38:04Z</time>
      </trkpt>
      <trkpt lat="40.664901000" lon="-3.786469000">
        <ele>888.666000</ele>
        <time>2017-05-26T00:38:24Z</time>
      </trkpt>
      <trkpt lat="40.664990000" lon="-3.786351000">
        <ele>889.146000</ele>
        <time>2017-05-26T00:38:44Z</time>
      </trkpt>
      <trkpt lat="40.665255000" lon="-3.786206000">
        <ele>890.688000</ele>
        <time>2017-05-26T00:39:04Z</time>
      </trkpt>
      <trkpt lat="40.665499000" lon="-3.786083000">
        <ele>891.116000</ele>
        <time>2017-05-26T00:39:24Z</time>
      </trkpt>
      <trkpt lat="40.665694000" lon="-3.785976000">
        <ele>890.508000</ele>
        <time>2017-05-26T00:39:44Z</time>
      </trkpt>
      <trkpt lat="40.665902000" lon="-3.786094000">
        <ele>889.395000</ele>
        <time>2017-05-26T00:40:04Z</time>
      </trkpt>
      <trkpt lat="40.666044000" lon="-3.786432000">
        <ele>887.871000</ele>
        <time>2017-05-26T00:40:24Z</time>
      </trkpt>
      <trkpt lat="40.666174000" lon="-3.786684000">
        <ele>887.193000</ele>
        <time>2017-05-26T00:40:44Z</time>
      </trkpt>
      <trkpt lat="40.666296000" lon="-3.787129000">
        <ele>885.026000</ele>
        <time>2017-05-26T00:41:04Z</time>
      </trkpt>
      <trkpt lat="40.666410000" lon="-3.787585000">
        <ele>882.729000</ele>
        <time>2017-05-26T00:41:24Z</time>
      </trkpt>
      <trkpt lat="40.666488000" lon="-3.787875000">
        <ele>882.445000</ele>
        <time>2017-05-26T00:41:44Z</time>
      </trkpt>
      <trkpt lat="40.666711000" lon="-3.788454000">
        <ele>884.049000</ele>
        <time>2017-05-26T00:42:04Z</time>
      </trkpt>
      <trkpt lat="40.667098000" lon="-3.789387000">
        <ele>881.252000</ele>
        <time>2017-05-26T00:42:24Z</time>
      </trkpt>
      <trkpt lat="40.667383000" lon="-3.790101000">
        <ele>878.819000</ele>
        <time>2017-05-26T00:42:44Z</time>
      </trkpt>
      <trkpt lat="40.667875000" lon="-3.791217000">
        <ele>872.809000</ele>
        <time>2017-05-26T00:43:04Z</time>
      </trkpt>
      <trkpt lat="40.668050000" lon="-3.791630000">
        <ele>869.219000</ele>
        <time>2017-05-26T00:43:24Z</time>
      </trkpt>
      <trkpt lat="40.668103000" lon="-3.791785000">
        <ele>869.208000</ele>
        <time>2017-05-26T00:43:44Z</time>
      </trkpt>
      <trkpt lat="40.668160000" lon="-3.792059000">
        <ele>869.412000</ele>
        <time>2017-05-26T00:44:04Z</time>
      </trkpt>
      <trkpt lat="40.668233000" lon="-3.792408000">
        <ele>869.648000</ele>
        <time>2017-05-26T00:44:24Z</time>
      </trkpt>
      <trkpt lat="40.668302000" lon="-3.792858000">
        <ele>869.910000</ele>
        <time>2017-05-26T00:44:44Z</time>
      </trkpt>
      <trkpt lat="40.668319000" lon="-3.793185000">
        <ele>869.993000</ele>
        <time>2017-05-26T00:45:04Z</time>
      </trkpt>
      <trkpt lat="40.668327000" lon="-3.793427000">
        <ele>870.046000</ele>
        <time>2017-05-26T00:45:24Z</time>
      </trkpt>
      <trkpt lat="40.668400000" lon="-3.793867000">
        <ele>870.262000</ele>
        <time>2017-05-26T00:45:44Z</time>
      </trkpt>
      <trkpt lat="40.668449000" lon="-3.794162000">
        <ele>871.436000</ele>
        <time>2017-05-26T00:46:04Z</time>
      </trkpt>
      <trkpt lat="40.668522000" lon="-3.794419000">
        <ele>872.369000</ele>
        <time>2017-05-26T00:46:24Z</time>
      </trkpt>
      <trkpt lat="40.668652000" lon="-3.794709000">
        <ele>874.168000</ele>
        <time>2017-05-26T00:46:44Z</time>
      </trkpt>
      <trkpt lat="40.668791000" lon="-3.794966000">
        <ele>875.542000</ele>
        <time>2017-05-26T00:47:04Z</time>
      </trkpt>
      <trkpt lat="40.668990000" lon="-3.795379000">
        <ele>878.126000</ele>
        <time>2017-05-26T00:47:24Z</time>
      </trkpt>
      <trkpt lat="40.669063000" lon="-3.795615000">
        <ele>879.608000</ele>
        <time>2017-05-26T00:47:44Z</time>
      </trkpt>
      <trkpt lat="40.669108000" lon="-3.795750000">
        <ele>880.847000</ele>
        <time>2017-05-26T00:48:04Z</time>
      </trkpt>
      <trkpt lat="40.669185000" lon="-3.795857000">
        <ele>882.283000</ele>
        <time>2017-05-26T00:48:24Z</time>
      </trkpt>
      <trkpt lat="40.669368000" lon="-3.796350000">
        <ele>884.655000</ele>
        <time>2017-05-26T00:48:44Z</time>
      </trkpt>
      <trkpt lat="40.669450000" lon="-3.796554000">
        <ele>886.248000</ele>
        <time>2017-05-26T00:49:04Z</time>
      </trkpt>
      <trkpt lat="40.669486000" lon="-3.796726000">
        <ele>887.441000</ele>
        <time>2017-05-26T00:49:24Z</time>
      </trkpt>
      <trkpt lat="40.669535000" lon="-3.797375000">
        <ele>890.267000</ele>
        <time>2017-05-26T00:49:44Z</time>
      </trkpt>
      <trkpt lat="40.669547000" lon="-3.797729000">
        <ele>892.111000</ele>
        <time>2017-05-26T00:50:04Z</time>
      </trkpt>
      <trkpt lat="40.669535000" lon="-3.797911000">
        <ele>892.834000</ele>
        <time>2017-05-26T00:50:24Z</time>
      </trkpt>
      <trkpt lat="40.669515000" lon="-3.798099000">
        <ele>893.461000</ele>
        <time>2017-05-26T00:50:44Z</time>
      </trkpt>
      <trkpt lat="40.669539000" lon="-3.798410000">
        <ele>894.621000</ele>
        <time>2017-05-26T00:51:04Z</time>
      </trkpt>
      <trkpt lat="40.669564000" lon="-3.798738000">
        <ele>896.113000</ele>
        <time>2017-05-26T00:51:24Z</time>
      </trkpt>
      <trkpt lat="40.669604000" lon="-3.799033000">
        <ele>896.908000</ele>
        <time>2017-05-26T00:51:44Z</time>
      </trkpt>
      <trkpt lat="40.669694000" lon="-3.799231000">
        <ele>896.767000</ele>
        <time>2017-05-26T00:52:04Z</time>
      </trkpt>
      <trkpt lat="40.669730000" lon="-3.799483000">
        <ele>896.173000</ele>
        <time>2017-05-26T00:52:24Z</time>
      </trkpt>
      <trkpt lat="40.669828000" lon="-3.799810000">
        <ele>896.145000</ele>
        <time>2017-05-26T00:52:44Z</time>
      </trkpt>
      <trkpt lat="40.669922000" lon="-3.800052000">
        <ele>895.568000</ele>
        <time>2017-05-26T00:53:04Z</time>
      </trkpt>
      <trkpt lat="40.670019000" lon="-3.800325000">
        <ele>894.891000</ele>
        <time>2017-05-26T00:53:24Z</time>
      </trkpt>
      <trkpt lat="40.670341000" lon="-3.800728000">
        <ele>893.437000</ele>
        <time>2017-05-26T00:53:44Z</time>
      </trkpt>
      <trkpt lat="40.670495000" lon="-3.800803000">
        <ele>893.141000</ele>
        <time>2017-05-26T00:54:04Z</time>
      </trkpt>
      <trkpt lat="40.670638000" lon="-3.800991000">
        <ele>892.144000</ele>
        <time>2017-05-26T00:54:24Z</time>
      </trkpt>
      <trkpt lat="40.670723000" lon="-3.801168000">
        <ele>891.046000</ele>
        <time>2017-05-26T00:54:44Z</time>
      </trkpt>
      <trkpt lat="40.670821000" lon="-3.801575000">
        <ele>889.088000</ele>
        <time>2017-05-26T00:55:04Z</time>
      </trkpt>
      <trkpt lat="40.670874000" lon="-3.801865000">
        <ele>888.216000</ele>
        <time>2017-05-26T00:55:24Z</time>
      </trkpt>
      <trkpt lat="40.670939000" lon="-3.802085000">
        <ele>887.508000</ele>
        <time>2017-05-26T00:55:44Z</time>
      </trkpt>
      <trkpt lat="40.671041000" lon="-3.802230000">
        <ele>887.065000</ele>
        <time>2017-05-26T00:56:04Z</time>
      </trkpt>
      <trkpt lat="40.671106000" lon="-3.802337000">
        <ele>886.631000</ele>
        <time>2017-05-26T00:56:24Z</time>
      </trkpt>
      <trkpt lat="40.671106000" lon="-3.802482000">
        <ele>886.163000</ele>
        <time>2017-05-26T00:56:44Z</time>
      </trkpt>
      <trkpt lat="40.671134000" lon="-3.802696000">
        <ele>885.676000</ele>
        <time>2017-05-26T00:57:04Z</time>
      </trkpt>
      <trkpt lat="40.671191000" lon="-3.802959000">
        <ele>883.929000</ele>
        <time>2017-05-26T00:57:24Z</time>
      </trkpt>
      <trkpt lat="40.671236000" lon="-3.803126000">
        <ele>882.585000</ele>
        <time>2017-05-26T00:57:44Z</time>
      </trkpt>
      <trkpt lat="40.671382000" lon="-3.803233000">
        <ele>879.519000</ele>
        <time>2017-05-26T00:58:04Z</time>
      </trkpt>
      <trkpt lat="40.671570000" lon="-3.803383000">
        <ele>878.992000</ele>
        <time>2017-05-26T00:58:24Z</time>
      </trkpt>
      <trkpt lat="40.671797000" lon="-3.803592000">
        <ele>878.149000</ele>
        <time>2017-05-26T00:58:44Z</time>
      </trkpt>
      <trkpt lat="40.671871000" lon="-3.803743000">
        <ele>877.202000</ele>
        <time>2017-05-26T00:59:04Z</time>
      </trkpt>
      <trkpt lat="40.672005000" lon="-3.804043000">
        <ele>874.922000</ele>
        <time>2017-05-26T00:59:24Z</time>
      </trkpt>
      <trkpt lat="40.672164000" lon="-3.804343000">
        <ele>872.408000</ele>
        <time>2017-05-26T00:59:44Z</time>
      </trkpt>
      <trkpt lat="40.672249000" lon="-3.804547000">
        <ele>870.495000</ele>
        <time>2017-05-26T01:00:04Z</time>
      </trkpt>
      <trkpt lat="40.672375000" lon="-3.804810000">
        <ele>869.171000</ele>
        <time>2017-05-26T01:00:24Z</time>
      </trkpt>
      <trkpt lat="40.672444000" lon="-3.804933000">
        <ele>868.493000</ele>
        <time>2017-05-26T01:00:44Z</time>
      </trkpt>
      <trkpt lat="40.672526000" lon="-3.805041000">
        <ele>867.836000</ele>
        <time>2017-05-26T01:01:04Z</time>
      </trkpt>
      <trkpt lat="40.672554000" lon="-3.805153000">
        <ele>867.399000</ele>
        <time>2017-05-26T01:01:24Z</time>
      </trkpt>
      <trkpt lat="40.672607000" lon="-3.805228000">
        <ele>866.935000</ele>
        <time>2017-05-26T01:01:44Z</time>
      </trkpt>
      <trkpt lat="40.672640000" lon="-3.805384000">
        <ele>866.159000</ele>
        <time>2017-05-26T01:02:04Z</time>
      </trkpt>
      <trkpt lat="40.672729000" lon="-3.805636000">
        <ele>864.852000</ele>
        <time>2017-05-26T01:02:24Z</time>
      </trkpt>
      <trkpt lat="40.672815000" lon="-3.805867000">
        <ele>863.577000</ele>
        <time>2017-05-26T01:02:44Z</time>
      </trkpt>
      <trkpt lat="40.672933000" lon="-3.805974000">
        <ele>862.261000</ele>
        <time>2017-05-26T01:03:04Z</time>
      </trkpt>
      <trkpt lat="40.673091000" lon="-3.806087000">
        <ele>861.027000</ele>
        <time>2017-05-26T01:03:24Z</time>
      </trkpt>
      <trkpt lat="40.673331000" lon="-3.805996000">
        <ele>860.808000</ele>
        <time>2017-05-26T01:03:44Z</time>
      </trkpt>
      <trkpt lat="40.673453000" lon="-3.806285000">
        <ele>858.848000</ele>
        <time>2017-05-26T01:04:04Z</time>
      </trkpt>
      <trkpt lat="40.673616000" lon="-3.806334000">
        <ele>857.684000</ele>
        <time>2017-05-26T01:04:24Z</time>
      </trkpt>
      <trkpt lat="40.673779000" lon="-3.806403000">
        <ele>855.636000</ele>
        <time>2017-05-26T01:04:44Z</time>
      </trkpt>
      <trkpt lat="40.673982000" lon="-3.806500000">
        <ele>852.939000</ele>
        <time>2017-05-26T01:05:04Z</time>
      </trkpt>
      <trkpt lat="40.674161000" lon="-3.806629000">
        <ele>850.452000</ele>
        <time>2017-05-26T01:05:24Z</time>
      </trkpt>
      <trkpt lat="40.674365000" lon="-3.806827000">
        <ele>849.068000</ele>
        <time>2017-05-26T01:05:44Z</time>
      </trkpt>
      <trkpt lat="40.674483000" lon="-3.806934000">
        <ele>848.142000</ele>
        <time>2017-05-26T01:06:04Z</time>
      </trkpt>
      <trkpt lat="40.674666000" lon="-3.807052000">
        <ele>847.365000</ele>
        <time>2017-05-26T01:06:24Z</time>
      </trkpt>
      <trkpt lat="40.674824000" lon="-3.807170000">
        <ele>846.152000</ele>
        <time>2017-05-26T01:06:44Z</time>
      </trkpt>
      <trkpt lat="40.674975000" lon="-3.807326000">
        <ele>844.353000</ele>
        <time>2017-05-26T01:07:04Z</time>
      </trkpt>
      <trkpt lat="40.675097000" lon="-3.807439000">
        <ele>842.708000</ele>
        <time>2017-05-26T01:07:24Z</time>
      </trkpt>
      <trkpt lat="40.675260000" lon="-3.807573000">
        <ele>840.608000</ele>
        <time>2017-05-26T01:07:44Z</time>
      </trkpt>
      <trkpt lat="40.675439000" lon="-3.807637000">
        <ele>838.956000</ele>
        <time>2017-05-26T01:08:04Z</time>
      </trkpt>
      <trkpt lat="40.675630000" lon="-3.807680000">
        <ele>836.912000</ele>
        <time>2017-05-26T01:08:24Z</time>
      </trkpt>
      <trkpt lat="40.675797000" lon="-3.807868000">
        <ele>833.854000</ele>
        <time>2017-05-26T01:08:44Z</time>
      </trkpt>
      <trkpt lat="40.675870000" lon="-3.808013000">
        <ele>832.897000</ele>
        <time>2017-05-26T01:09:04Z</time>
      </trkpt>
      <trkpt lat="40.676004000" lon="-3.808088000">
        <ele>834.310000</ele>
        <time>2017-05-26T01:09:24Z</time>
      </trkpt>
      <trkpt lat="40.676175000" lon="-3.808415000">
        <ele>836.316000</ele>
        <time>2017-05-26T01:09:44Z</time>
      </trkpt>
      <trkpt lat="40.676277000" lon="-3.808662000">
        <ele>837.950000</ele>
        <time>2017-05-26T01:10:04Z</time>
      </trkpt>
      <trkpt lat="40.676452000" lon="-3.808742000">
        <ele>840.393000</ele>
        <time>2017-05-26T01:10:24Z</time>
      </trkpt>
      <trkpt lat="40.676566000" lon="-3.808935000">
        <ele>838.447000</ele>
        <time>2017-05-26T01:10:44Z</time>
      </trkpt>
      <trkpt lat="40.676773000" lon="-3.809091000">
        <ele>837.029000</ele>
        <time>2017-05-26T01:11:04Z</time>
      </trkpt>
      <trkpt lat="40.676895000" lon="-3.809257000">
        <ele>836.121000</ele>
        <time>2017-05-26T01:11:24Z</time>
      </trkpt>
      <trkpt lat="40.677009000" lon="-3.809547000">
        <ele>835.608000</ele>
        <time>2017-05-26T01:11:44Z</time>
      </trkpt>
      <trkpt lat="40.677143000" lon="-3.809847000">
        <ele>836.735000</ele>
        <time>2017-05-26T01:12:04Z</time>
      </trkpt>
      <trkpt lat="40.677286000" lon="-3.810137000">
        <ele>839.421000</ele>
        <time>2017-05-26T01:12:24Z</time>
      </trkpt>
      <trkpt lat="40.677379000" lon="-3.810341000">
        <ele>841.653000</ele>
        <time>2017-05-26T01:12:44Z</time>
      </trkpt>
      <trkpt lat="40.677404000" lon="-3.810470000">
        <ele>842.426000</ele>
        <time>2017-05-26T01:13:04Z</time>
      </trkpt>
      <trkpt lat="40.677392000" lon="-3.810593000">
        <ele>842.429000</ele>
        <time>2017-05-26T01:13:24Z</time>
      </trkpt>
      <trkpt lat="40.677412000" lon="-3.810695000">
        <ele>842.745000</ele>
        <time>2017-05-26T01:13:44Z</time>
      </trkpt>
      <trkpt lat="40.677554000" lon="-3.810765000">
        <ele>844.789000</ele>
        <time>2017-05-26T01:14:04Z</time>
      </trkpt>
      <trkpt lat="40.677554000" lon="-3.810936000">
        <ele>843.852000</ele>
        <time>2017-05-26T01:14:24Z</time>
      </trkpt>
      <trkpt lat="40.677579000" lon="-3.811092000">
        <ele>843.028000</ele>
        <time>2017-05-26T01:14:44Z</time>
      </trkpt>
      <trkpt lat="40.677636000" lon="-3.811242000">
        <ele>842.889000</ele>
        <time>2017-05-26T01:15:04Z</time>
      </trkpt>
      <trkpt lat="40.677705000" lon="-3.811398000">
        <ele>842.417000</ele>
        <time>2017-05-26T01:15:24Z</time>
      </trkpt>
      <trkpt lat="40.677721000" lon="-3.811617000">
        <ele>841.108000</ele>
        <time>2017-05-26T01:15:44Z</time>
      </trkpt>
      <trkpt lat="40.677770000" lon="-3.811789000">
        <ele>840.533000</ele>
        <time>2017-05-26T01:16:04Z</time>
      </trkpt>
      <trkpt lat="40.677855000" lon="-3.811880000">
        <ele>840.999000</ele>
        <time>2017-05-26T01:16:24Z</time>
      </trkpt>
      <trkpt lat="40.677904000" lon="-3.812036000">
        <ele>841.641000</ele>
        <time>2017-05-26T01:16:44Z</time>
      </trkpt>
      <trkpt lat="40.677933000" lon="-3.812197000">
        <ele>842.914000</ele>
        <time>2017-05-26T01:17:04Z</time>
      </trkpt>
      <trkpt lat="40.678075000" lon="-3.812277000">
        <ele>844.417000</ele>
        <time>2017-05-26T01:17:24Z</time>
      </trkpt>
      <trkpt lat="40.678262000" lon="-3.812599000">
        <ele>847.953000</ele>
        <time>2017-05-26T01:17:44Z</time>
      </trkpt>
      <trkpt lat="40.678339000" lon="-3.812739000">
        <ele>849.747000</ele>
        <time>2017-05-26T01:18:04Z</time>
      </trkpt>
      <trkpt lat="40.678421000" lon="-3.812916000">
        <ele>850.830000</ele>
        <time>2017-05-26T01:18:24Z</time>
      </trkpt>
      <trkpt lat="40.678584000" lon="-3.813034000">
        <ele>851.854000</ele>
        <time>2017-05-26T01:18:44Z</time>
      </trkpt>
      <trkpt lat="40.678807000" lon="-3.813297000">
        <ele>855.256000</ele>
        <time>2017-05-26T01:19:04Z</time>
      </trkpt>
      <trkpt lat="40.678901000" lon="-3.813404000">
        <ele>856.411000</ele>
        <time>2017-05-26T01:19:24Z</time>
      </trkpt>
      <trkpt lat="40.678986000" lon="-3.813506000">
        <ele>858.008000</ele>
        <time>2017-05-26T01:19:44Z</time>
      </trkpt>
      <trkpt lat="40.679011000" lon="-3.813688000">
        <ele>859.086000</ele>
        <time>2017-05-26T01:20:04Z</time>
      </trkpt>
      <trkpt lat="40.679027000" lon="-3.813919000">
        <ele>860.232000</ele>
        <time>2017-05-26T01:20:24Z</time>
      </trkpt>
      <trkpt lat="40.679108000" lon="-3.814171000">
        <ele>862.434000</ele>
        <time>2017-05-26T01:20:44Z</time>
      </trkpt>
      <trkpt lat="40.679169000" lon="-3.814353000">
        <ele>863.787000</ele>
        <time>2017-05-26T01:21:04Z</time>
      </trkpt>
      <trkpt lat="40.679198000" lon="-3.814504000">
        <ele>864.410000</ele>
        <time>2017-05-26T01:21:24Z</time>
      </trkpt>
      <trkpt lat="40.679251000" lon="-3.814595000">
        <ele>865.136000</ele>
        <time>2017-05-26T01:21:44Z</time>
      </trkpt>
      <trkpt lat="40.679365000" lon="-3.814713000">
        <ele>866.420000</ele>
        <time>2017-05-26T01:22:04Z</time>
      </trkpt>
      <trkpt lat="40.679479000" lon="-3.814863000">
        <ele>867.193000</ele>
        <time>2017-05-26T01:22:24Z</time>
      </trkpt>
      <trkpt lat="40.679584000" lon="-3.815002000">
        <ele>867.559000</ele>
        <time>2017-05-26T01:22:44Z</time>
      </trkpt>
      <trkpt lat="40.679645000" lon="-3.815115000">
        <ele>867.703000</ele>
        <time>2017-05-26T01:23:04Z</time>
      </trkpt>
      <trkpt lat="40.679682000" lon="-3.815238000">
        <ele>867.923000</ele>
        <time>2017-05-26T01:23:24Z</time>
      </trkpt>
      <trkpt lat="40.679731000" lon="-3.815458000">
        <ele>868.008000</ele>
        <time>2017-05-26T01:23:44Z</time>
      </trkpt>
      <trkpt lat="40.679808000" lon="-3.815743000">
        <ele>868.356000</ele>
        <time>2017-05-26T01:24:04Z</time>
      </trkpt>
      <trkpt lat="40.679873000" lon="-3.815936000">
        <ele>868.522000</ele>
        <time>2017-05-26T01:24:24Z</time>
      </trkpt>
      <trkpt lat="40.679922000" lon="-3.816075000">
        <ele>868.794000</ele>
        <time>2017-05-26T01:24:44Z</time>
      </trkpt>
      <trkpt lat="40.680007000" lon="-3.816344000">
        <ele>869.037000</ele>
        <time>2017-05-26T01:25:04Z</time>
      </trkpt>
      <trkpt lat="40.680105000" lon="-3.816580000">
        <ele>868.620000</ele>
        <time>2017-05-26T01:25:24Z</time>
      </trkpt>
      <trkpt lat="40.680191000" lon="-3.816859000">
        <ele>868.776000</ele>
        <time>2017-05-26T01:25:44Z</time>
      </trkpt>
      <trkpt lat="40.680256000" lon="-3.817036000">
        <ele>868.920000</ele>
        <time>2017-05-26T01:26:04Z</time>
      </trkpt>
      <trkpt lat="40.680296000" lon="-3.817266000">
        <ele>869.113000</ele>
        <time>2017-05-26T01:26:24Z</time>
      </trkpt>
      <trkpt lat="40.680374000" lon="-3.817497000">
        <ele>869.341000</ele>
        <time>2017-05-26T01:26:44Z</time>
      </trkpt>
      <trkpt lat="40.680483000" lon="-3.817722000">
        <ele>868.981000</ele>
        <time>2017-05-26T01:27:04Z</time>
      </trkpt>
      <trkpt lat="40.680581000" lon="-3.817878000">
        <ele>868.709000</ele>
        <time>2017-05-26T01:27:24Z</time>
      </trkpt>
      <trkpt lat="40.680711000" lon="-3.818082000">
        <ele>867.908000</ele>
        <time>2017-05-26T01:27:44Z</time>
      </trkpt>
      <trkpt lat="40.680837000" lon="-3.818173000">
        <ele>867.695000</ele>
        <time>2017-05-26T01:28:04Z</time>
      </trkpt>
      <trkpt lat="40.681330000" lon="-3.818318000">
        <ele>868.141000</ele>
        <time>2017-05-26T01:28:24Z</time>
      </trkpt>
      <trkpt lat="40.681830000" lon="-3.818462000">
        <ele>869.683000</ele>
        <time>2017-05-26T01:28:44Z</time>
      </trkpt>
      <trkpt lat="40.682054000" lon="-3.818462000">
        <ele>870.216000</ele>
        <time>2017-05-26T01:29:04Z</time>
      </trkpt>
      <trkpt lat="40.682338000" lon="-3.818446000">
        <ele>870.849000</ele>
        <time>2017-05-26T01:29:24Z</time>
      </trkpt>
      <trkpt lat="40.682513000" lon="-3.818495000">
        <ele>871.015000</ele>
        <time>2017-05-26T01:29:44Z</time>
      </trkpt>
      <trkpt lat="40.682823000" lon="-3.818586000">
        <ele>870.189000</ele>
        <time>2017-05-26T01:30:04Z</time>
      </trkpt>
      <trkpt lat="40.683111000" lon="-3.818656000">
        <ele>869.972000</ele>
        <time>2017-05-26T01:30:24Z</time>
      </trkpt>
      <trkpt lat="40.683274000" lon="-3.818731000">
        <ele>870.349000</ele>
        <time>2017-05-26T01:30:44Z</time>
      </trkpt>
      <trkpt lat="40.683514000" lon="-3.818902000">
        <ele>871.902000</ele>
        <time>2017-05-26T01:31:04Z</time>
      </trkpt>
      <trkpt lat="40.683746000" lon="-3.819149000">
        <ele>870.622000</ele>
        <time>2017-05-26T01:31:24Z</time>
      </trkpt>
      <trkpt lat="40.683868000" lon="-3.819283000">
        <ele>869.608000</ele>
        <time>2017-05-26T01:31:44Z</time>
      </trkpt>
      <trkpt lat="40.683953000" lon="-3.819530000">
        <ele>869.715000</ele>
        <time>2017-05-26T01:32:04Z</time>
      </trkpt>
      <trkpt lat="40.684039000" lon="-3.819707000">
        <ele>868.971000</ele>
        <time>2017-05-26T01:32:24Z</time>
      </trkpt>
      <trkpt lat="40.684055000" lon="-3.819820000">
        <ele>868.563000</ele>
        <time>2017-05-26T01:32:44Z</time>
      </trkpt>
      <trkpt lat="40.684055000" lon="-3.819938000">
        <ele>868.066000</ele>
        <time>2017-05-26T01:33:04Z</time>
      </trkpt>
      <trkpt lat="40.684100000" lon="-3.820077000">
        <ele>867.279000</ele>
        <time>2017-05-26T01:33:24Z</time>
      </trkpt>
      <trkpt lat="40.684238000" lon="-3.820367000">
        <ele>865.495000</ele>
        <time>2017-05-26T01:33:44Z</time>
      </trkpt>
      <trkpt lat="40.684320000" lon="-3.820453000">
        <ele>864.859000</ele>
        <time>2017-05-26T01:34:04Z</time>
      </trkpt>
      <trkpt lat="40.684413000" lon="-3.820614000">
        <ele>863.912000</ele>
        <time>2017-05-26T01:34:24Z</time>
      </trkpt>
      <trkpt lat="40.684503000" lon="-3.820758000">
        <ele>863.163000</ele>
        <time>2017-05-26T01:34:44Z</time>
      </trkpt>
      <trkpt lat="40.684641000" lon="-3.820930000">
        <ele>861.944000</ele>
        <time>2017-05-26T01:35:04Z</time>
      </trkpt>
      <trkpt lat="40.684730000" lon="-3.821118000">
        <ele>861.018000</ele>
        <time>2017-05-26T01:35:24Z</time>
      </trkpt>
      <trkpt lat="40.684824000" lon="-3.821273000">
        <ele>860.208000</ele>
        <time>2017-05-26T01:35:44Z</time>
      </trkpt>
      <trkpt lat="40.684857000" lon="-3.821509000">
        <ele>858.987000</ele>
        <time>2017-05-26T01:36:04Z</time>
      </trkpt>
      <trkpt lat="40.684905000" lon="-3.821847000">
        <ele>856.763000</ele>
        <time>2017-05-26T01:36:24Z</time>
      </trkpt>
      <trkpt lat="40.684909000" lon="-3.822100000">
        <ele>855.075000</ele>
        <time>2017-05-26T01:36:44Z</time>
      </trkpt>
      <trkpt lat="40.684958000" lon="-3.822357000">
        <ele>852.438000</ele>
        <time>2017-05-26T01:37:04Z</time>
      </trkpt>
      <trkpt lat="40.685019000" lon="-3.822513000">
        <ele>850.931000</ele>
        <time>2017-05-26T01:37:24Z</time>
      </trkpt>
      <trkpt lat="40.685300000" lon="-3.822738000">
        <ele>848.167000</ele>
        <time>2017-05-26T01:37:44Z</time>
      </trkpt>
      <trkpt lat="40.685418000" lon="-3.822894000">
        <ele>845.031000</ele>
        <time>2017-05-26T01:38:04Z</time>
      </trkpt>
      <trkpt lat="40.685471000" lon="-3.823092000">
        <ele>842.784000</ele>
        <time>2017-05-26T01:38:24Z</time>
      </trkpt>
      <trkpt lat="40.685552000" lon="-3.823221000">
        <ele>841.866000</ele>
        <time>2017-05-26T01:38:44Z</time>
      </trkpt>
      <trkpt lat="40.685670000" lon="-3.823333000">
        <ele>841.829000</ele>
        <time>2017-05-26T01:39:04Z</time>
      </trkpt>
      <trkpt lat="40.685890000" lon="-3.823360000">
        <ele>842.421000</ele>
        <time>2017-05-26T01:39:24Z</time>
      </trkpt>
      <trkpt lat="40.686069000" lon="-3.823339000">
        <ele>841.308000</ele>
        <time>2017-05-26T01:39:44Z</time>
      </trkpt>
      <trkpt lat="40.686219000" lon="-3.823725000">
        <ele>843.247000</ele>
        <time>2017-05-26T01:40:04Z</time>
      </trkpt>
      <trkpt lat="40.686358000" lon="-3.823999000">
        <ele>848.423000</ele>
        <time>2017-05-26T01:40:24Z</time>
      </trkpt>
      <trkpt lat="40.686402000" lon="-3.824117000">
        <ele>850.315000</ele>
        <time>2017-05-26T01:40:44Z</time>
      </trkpt>
      <trkpt lat="40.686439000" lon="-3.824315000">
        <ele>852.888000</ele>
        <time>2017-05-26T01:41:04Z</time>
      </trkpt>
      <trkpt lat="40.686476000" lon="-3.824524000">
        <ele>855.291000</ele>
        <time>2017-05-26T01:41:24Z</time>
      </trkpt>
      <trkpt lat="40.686532000" lon="-3.824680000">
        <ele>857.127000</ele>
        <time>2017-05-26T01:41:44Z</time>
      </trkpt>
      <trkpt lat="40.686720000" lon="-3.824696000">
        <ele>857.571000</ele>
        <time>2017-05-26T01:42:04Z</time>
      </trkpt>
      <trkpt lat="40.686927000" lon="-3.824637000">
        <ele>856.134000</ele>
        <time>2017-05-26T01:42:24Z</time>
      </trkpt>
      <trkpt lat="40.687061000" lon="-3.824535000">
        <ele>855.163000</ele>
        <time>2017-05-26T01:42:44Z</time>
      </trkpt>
      <trkpt lat="40.687305000" lon="-3.824610000">
        <ele>856.544000</ele>
        <time>2017-05-26T01:43:04Z</time>
      </trkpt>
      <trkpt lat="40.687598000" lon="-3.824846000">
        <ele>859.618000</ele>
        <time>2017-05-26T01:43:24Z</time>
      </trkpt>
      <trkpt lat="40.687753000" lon="-3.825077000">
        <ele>861.908000</ele>
        <time>2017-05-26T01:43:44Z</time>
      </trkpt>
      <trkpt lat="40.687895000" lon="-3.825302000">
        <ele>863.427000</ele>
        <time>2017-05-26T01:44:04Z</time>
      </trkpt>
      <trkpt lat="40.688196000" lon="-3.825871000">
        <ele>866.383000</ele>
        <time>2017-05-26T01:44:24Z</time>
      </trkpt>
      <trkpt lat="40.688473000" lon="-3.826262000">
        <ele>867.845000</ele>
        <time>2017-05-26T01:44:44Z</time>
      </trkpt>
      <trkpt lat="40.688668000" lon="-3.826450000">
        <ele>868.298000</ele>
        <time>2017-05-26T01:45:04Z</time>
      </trkpt>
      <trkpt lat="40.689059000" lon="-3.826895000">
        <ele>871.891000</ele>
        <time>2017-05-26T01:45:24Z</time>
      </trkpt>
      <trkpt lat="40.689250000" lon="-3.827164000">
        <ele>873.817000</ele>
        <time>2017-05-26T01:45:44Z</time>
      </trkpt>
      <trkpt lat="40.689339000" lon="-3.827314000">
        <ele>874.071000</ele>
        <time>2017-05-26T01:46:04Z</time>
      </trkpt>
      <trkpt lat="40.689421000" lon="-3.827636000">
        <ele>874.514000</ele>
        <time>2017-05-26T01:46:24Z</time>
      </trkpt>
      <trkpt lat="40.689567000" lon="-3.828215000">
        <ele>875.651000</ele>
        <time>2017-05-26T01:46:44Z</time>
      </trkpt>
      <trkpt lat="40.689709000" lon="-3.828650000">
        <ele>876.101000</ele>
        <time>2017-05-26T01:47:04Z</time>
      </trkpt>
      <trkpt lat="40.689844000" lon="-3.828955000">
        <ele>876.711000</ele>
        <time>2017-05-26T01:47:24Z</time>
      </trkpt>
      <trkpt lat="40.689957000" lon="-3.829256000">
        <ele>877.308000</ele>
        <time>2017-05-26T01:47:44Z</time>
      </trkpt>
      <trkpt lat="40.690108000" lon="-3.829599000">
        <ele>878.026000</ele>
        <time>2017-05-26T01:48:04Z</time>
      </trkpt>
      <trkpt lat="40.690263000" lon="-3.829819000">
        <ele>878.342000</ele>
        <time>2017-05-26T01:48:24Z</time>
      </trkpt>
      <trkpt lat="40.690372000" lon="-3.830028000">
        <ele>879.444000</ele>
        <time>2017-05-26T01:48:44Z</time>
      </trkpt>
      <trkpt lat="40.690564000" lon="-3.830447000">
        <ele>881.047000</ele>
        <time>2017-05-26T01:49:04Z</time>
      </trkpt>
      <trkpt lat="40.690673000" lon="-3.830629000">
        <ele>881.670000</ele>
        <time>2017-05-26T01:49:24Z</time>
      </trkpt>
      <trkpt lat="40.690897000" lon="-3.831165000">
        <ele>883.086000</ele>
        <time>2017-05-26T01:49:44Z</time>
      </trkpt>
      <trkpt lat="40.691259000" lon="-3.832319000">
        <ele>884.390000</ele>
        <time>2017-05-26T01:50:04Z</time>
      </trkpt>
      <trkpt lat="40.691340000" lon="-3.832614000">
        <ele>884.773000</ele>
        <time>2017-05-26T01:50:24Z</time>
      </trkpt>
      <trkpt lat="40.691426000" lon="-3.832855000">
        <ele>884.852000</ele>
        <time>2017-05-26T01:50:44Z</time>
      </trkpt>
      <trkpt lat="40.691593000" lon="-3.833188000">
        <ele>884.753000</ele>
        <time>2017-05-26T01:51:04Z</time>
      </trkpt>
      <trkpt lat="40.691711000" lon="-3.833418000">
        <ele>885.308000</ele>
        <time>2017-05-26T01:51:24Z</time>
      </trkpt>
      <trkpt lat="40.691865000" lon="-3.833714000">
        <ele>885.608000</ele>
        <time>2017-05-26T01:51:44Z</time>
      </trkpt>
      <trkpt lat="40.692020000" lon="-3.833944000">
        <ele>887.016000</ele>
        <time>2017-05-26T01:52:04Z</time>
      </trkpt>
      <trkpt lat="40.692455000" lon="-3.834529000">
        <ele>891.362000</ele>
        <time>2017-05-26T01:52:24Z</time>
      </trkpt>
      <trkpt lat="40.692634000" lon="-3.834808000">
        <ele>894.944000</ele>
        <time>2017-05-26T01:52:44Z</time>
      </trkpt>
      <trkpt lat="40.692719000" lon="-3.834958000">
        <ele>897.557000</ele>
        <time>2017-05-26T01:53:04Z</time>
      </trkpt>
      <trkpt lat="40.692780000" lon="-3.835135000">
        <ele>900.070000</ele>
        <time>2017-05-26T01:53:24Z</time>
      </trkpt>
      <trkpt lat="40.692858000" lon="-3.835382000">
        <ele>900.846000</ele>
        <time>2017-05-26T01:53:44Z</time>
      </trkpt>
      <trkpt lat="40.692988000" lon="-3.835768000">
        <ele>901.880000</ele>
        <time>2017-05-26T01:54:04Z</time>
      </trkpt>
      <trkpt lat="40.693163000" lon="-3.836358000">
        <ele>903.563000</ele>
        <time>2017-05-26T01:54:24Z</time>
      </trkpt>
      <trkpt lat="40.693403000" lon="-3.837147000">
        <ele>906.298000</ele>
        <time>2017-05-26T01:54:44Z</time>
      </trkpt>
      <trkpt lat="40.693634000" lon="-3.837839000">
        <ele>910.115000</ele>
        <time>2017-05-26T01:55:04Z</time>
      </trkpt>
      <trkpt lat="40.693789000" lon="-3.838123000">
        <ele>910.526000</ele>
        <time>2017-05-26T01:55:24Z</time>
      </trkpt>
      <trkpt lat="40.693895000" lon="-3.838402000">
        <ele>911.208000</ele>
        <time>2017-05-26T01:55:44Z</time>
      </trkpt>
      <trkpt lat="40.694000000" lon="-3.838794000">
        <ele>912.770000</ele>
        <time>2017-05-26T01:56:04Z</time>
      </trkpt>
      <trkpt lat="40.694066000" lon="-3.839234000">
        <ele>914.476000</ele>
        <time>2017-05-26T01:56:24Z</time>
      </trkpt>
      <trkpt lat="40.694114000" lon="-3.839781000">
        <ele>917.058000</ele>
        <time>2017-05-26T01:56:44Z</time>
      </trkpt>
      <trkpt lat="40.694228000" lon="-3.840344000">
        <ele>919.661000</ele>
        <time>2017-05-26T01:57:04Z</time>
      </trkpt>
      <trkpt lat="40.694350000" lon="-3.840709000">
        <ele>920.794000</ele>
        <time>2017-05-26T01:57:24Z</time>
      </trkpt>
      <trkpt lat="40.694468000" lon="-3.840955000">
        <ele>921.060000</ele>
        <time>2017-05-26T01:57:44Z</time>
      </trkpt>
      <trkpt lat="40.694724000" lon="-3.841433000">
        <ele>923.034000</ele>
        <time>2017-05-26T01:58:04Z</time>
      </trkpt>
      <trkpt lat="40.694867000" lon="-3.841744000">
        <ele>923.337000</ele>
        <time>2017-05-26T01:58:24Z</time>
      </trkpt>
      <trkpt lat="40.695066000" lon="-3.842297000">
        <ele>924.528000</ele>
        <time>2017-05-26T01:58:44Z</time>
      </trkpt>
      <trkpt lat="40.695156000" lon="-3.842640000">
        <ele>926.189000</ele>
        <time>2017-05-26T01:59:04Z</time>
      </trkpt>
      <trkpt lat="40.695404000" lon="-3.843622000">
        <ele>930.517000</ele>
        <time>2017-05-26T01:59:24Z</time>
      </trkpt>
      <trkpt lat="40.695518000" lon="-3.844201000">
        <ele>933.008000</ele>
        <time>2017-05-26T01:59:44Z</time>
      </trkpt>
      <trkpt lat="40.695615000" lon="-3.844721000">
        <ele>934.413000</ele>
        <time>2017-05-26T02:00:04Z</time>
      </trkpt>
      <trkpt lat="40.695831000" lon="-3.845510000">
        <ele>938.899000</ele>
        <time>2017-05-26T02:00:24Z</time>
      </trkpt>
      <trkpt lat="40.695993000" lon="-3.846084000">
        <ele>940.641000</ele>
        <time>2017-05-26T02:00:44Z</time>
      </trkpt>
      <trkpt lat="40.696018000" lon="-3.846341000">
        <ele>941.294000</ele>
        <time>2017-05-26T02:01:04Z</time>
      </trkpt>
      <trkpt lat="40.696063000" lon="-3.847087000">
        <ele>942.567000</ele>
        <time>2017-05-26T02:01:24Z</time>
      </trkpt>
      <trkpt lat="40.696075000" lon="-3.847661000">
        <ele>943.613000</ele>
        <time>2017-05-26T02:01:44Z</time>
      </trkpt>
      <trkpt lat="40.696099000" lon="-3.850408000">
        <ele>950.427000</ele>
        <time>2017-05-26T02:02:04Z</time>
      </trkpt>
      <trkpt lat="40.696128000" lon="-3.853331000">
        <ele>958.170000</ele>
        <time>2017-05-26T02:02:24Z</time>
      </trkpt>
      <trkpt lat="40.696193000" lon="-3.855445000">
        <ele>964.073000</ele>
        <time>2017-05-26T02:02:44Z</time>
      </trkpt>
      <trkpt lat="40.696229000" lon="-3.855633000">
        <ele>963.885000</ele>
        <time>2017-05-26T02:03:04Z</time>
      </trkpt>
      <trkpt lat="40.696274000" lon="-3.855799000">
        <ele>964.213000</ele>
        <time>2017-05-26T02:03:24Z</time>
      </trkpt>
      <trkpt lat="40.696355000" lon="-3.855965000">
        <ele>964.308000</ele>
        <time>2017-05-26T02:03:44Z</time>
      </trkpt>
      <trkpt lat="40.696599000" lon="-3.856314000">
        <ele>965.528000</ele>
        <time>2017-05-26T02:04:04Z</time>
      </trkpt>
      <trkpt lat="40.696864000" lon="-3.856850000">
        <ele>966.484000</ele>
        <time>2017-05-26T02:04:24Z</time>
      </trkpt>
      <trkpt lat="40.697100000" lon="-3.857269000">
        <ele>967.096000</ele>
        <time>2017-05-26T02:04:44Z</time>
      </trkpt>
      <trkpt lat="40.697604000" lon="-3.858106000">
        <ele>968.639000</ele>
        <time>2017-05-26T02:05:04Z</time>
      </trkpt>
      <trkpt lat="40.697799000" lon="-3.858465000">
        <ele>968.782000</ele>
        <time>2017-05-26T02:05:24Z</time>
      </trkpt>
      <trkpt lat="40.697929000" lon="-3.858798000">
        <ele>969.128000</ele>
        <time>2017-05-26T02:05:44Z</time>
      </trkpt>
      <trkpt lat="40.698047000" lon="-3.859136000">
        <ele>970.822000</ele>
        <time>2017-05-26T02:06:04Z</time>
      </trkpt>
      <trkpt lat="40.698161000" lon="-3.859543000">
        <ele>972.975000</ele>
        <time>2017-05-26T02:06:24Z</time>
      </trkpt>
      <trkpt lat="40.698239000" lon="-3.859972000">
        <ele>974.665000</ele>
        <time>2017-05-26T02:06:44Z</time>
      </trkpt>
      <trkpt lat="40.698308000" lon="-3.860557000">
        <ele>974.868000</ele>
        <time>2017-05-26T02:07:04Z</time>
      </trkpt>
      <trkpt lat="40.698438000" lon="-3.861163000">
        <ele>974.414000</ele>
        <time>2017-05-26T02:07:24Z</time>
      </trkpt>
      <trkpt lat="40.698576000" lon="-3.861710000">
        <ele>974.908000</ele>
        <time>2017-05-26T02:07:44Z</time>
      </trkpt>
      <trkpt lat="40.698718000" lon="-3.862011000">
        <ele>975.827000</ele>
        <time>2017-05-26T02:08:04Z</time>
      </trkpt>
      <trkpt lat="40.699219000" lon="-3.863567000">
        <ele>980.843000</ele>
        <time>2017-05-26T02:08:24Z</time>
      </trkpt>
      <trkpt lat="40.699341000" lon="-3.863947000">
        <ele>983.375000</ele>
        <time>2017-05-26T02:08:44Z</time>
      </trkpt>
      <trkpt lat="40.699385000" lon="-3.864162000">
        <ele>984.938000</ele>
        <time>2017-05-26T02:09:04Z</time>
      </trkpt>
      <trkpt lat="40.699467000" lon="-3.864500000">
        <ele>986.191000</ele>
        <time>2017-05-26T02:09:24Z</time>
      </trkpt>
      <trkpt lat="40.699589000" lon="-3.865085000">
        <ele>987.547000</ele>
        <time>2017-05-26T02:09:44Z</time>
      </trkpt>
      <trkpt lat="40.699609000" lon="-3.865299000">
        <ele>987.781000</ele>
        <time>2017-05-26T02:10:04Z</time>
      </trkpt>
      <trkpt lat="40.699556000" lon="-3.865809000">
        <ele>988.434000</ele>
        <time>2017-05-26T02:10:24Z</time>
      </trkpt>
      <trkpt lat="40.699499000" lon="-3.866200000">
        <ele>989.237000</ele>
        <time>2017-05-26T02:10:44Z</time>
      </trkpt>
      <trkpt lat="40.699357000" lon="-3.866726000">
        <ele>989.449000</ele>
        <time>2017-05-26T02:11:04Z</time>
      </trkpt>
      <trkpt lat="40.698995000" lon="-3.867928000">
        <ele>991.913000</ele>
        <time>2017-05-26T02:11:24Z</time>
      </trkpt>
      <trkpt lat="40.698873000" lon="-3.868303000">
        <ele>992.808000</ele>
        <time>2017-05-26T02:11:44Z</time>
      </trkpt>
      <trkpt lat="40.698678000" lon="-3.868448000">
        <ele>991.934000</ele>
        <time>2017-05-26T02:12:04Z</time>
      </trkpt>
      <trkpt lat="40.698535000" lon="-3.868609000">
        <ele>991.460000</ele>
        <time>2017-05-26T02:12:24Z</time>
      </trkpt>
      <trkpt lat="40.698430000" lon="-3.868781000">
        <ele>991.342000</ele>
        <time>2017-05-26T02:12:44Z</time>
      </trkpt>
      <trkpt lat="40.698320000" lon="-3.869049000">
        <ele>991.485000</ele>
        <time>2017-05-26T02:13:04Z</time>
      </trkpt>
      <trkpt lat="40.698055000" lon="-3.869929000">
        <ele>991.768000</ele>
        <time>2017-05-26T02:13:24Z</time>
      </trkpt>
      <trkpt lat="40.697799000" lon="-3.870744000">
        <ele>991.894000</ele>
        <time>2017-05-26T02:13:44Z</time>
      </trkpt>
      <trkpt lat="40.697722000" lon="-3.871077000">
        <ele>992.568000</ele>
        <time>2017-05-26T02:14:04Z</time>
      </trkpt>
      <trkpt lat="40.697718000" lon="-3.871565000">
        <ele>993.241000</ele>
        <time>2017-05-26T02:14:24Z</time>
      </trkpt>
      <trkpt lat="40.697734000" lon="-3.871946000">
        <ele>994.795000</ele>
        <time>2017-05-26T02:14:44Z</time>
      </trkpt>
      <trkpt lat="40.697706000" lon="-3.872348000">
        <ele>995.349000</ele>
        <time>2017-05-26T02:15:04Z</time>
      </trkpt>
      <trkpt lat="40.697722000" lon="-3.872761000">
        <ele>995.623000</ele>
        <time>2017-05-26T02:15:24Z</time>
      </trkpt>
      <trkpt lat="40.697763000" lon="-3.872997000">
        <ele>996.708000</ele>
        <time>2017-05-26T02:15:44Z</time>
      </trkpt>
      <trkpt lat="40.697742000" lon="-3.873281000">
        <ele>996.790000</ele>
        <time>2017-05-26T02:16:04Z</time>
      </trkpt>
      <trkpt lat="40.697559000" lon="-3.873759000">
        <ele>996.346000</ele>
        <time>2017-05-26T02:16:24Z</time>
      </trkpt>
      <trkpt lat="40.697401000" lon="-3.874140000">
        <ele>996.568000</ele>
        <time>2017-05-26T02:16:44Z</time>
      </trkpt>
      <trkpt lat="40.697092000" lon="-3.876157000">
        <ele>995.181000</ele>
        <time>2017-05-26T02:17:04Z</time>
      </trkpt>
      <trkpt lat="40.696909000" lon="-3.877144000">
        <ele>994.764000</ele>
        <time>2017-05-26T02:17:24Z</time>
      </trkpt>
      <trkpt lat="40.696717000" lon="-3.878083000">
        <ele>994.470000</ele>
        <time>2017-05-26T02:17:44Z</time>
      </trkpt>
      <trkpt lat="40.696599000" lon="-3.878925000">
        <ele>994.454000</ele>
        <time>2017-05-26T02:18:04Z</time>
      </trkpt>
      <trkpt lat="40.696559000" lon="-3.879574000">
        <ele>992.427000</ele>
        <time>2017-05-26T02:18:24Z</time>
      </trkpt>
      <trkpt lat="40.696567000" lon="-3.879944000">
        <ele>991.564000</ele>
        <time>2017-05-26T02:18:44Z</time>
      </trkpt>
      <trkpt lat="40.696392000" lon="-3.881028000">
        <ele>987.306000</ele>
        <time>2017-05-26T02:19:04Z</time>
      </trkpt>
      <trkpt lat="40.696087000" lon="-3.882503000">
        <ele>978.816000</ele>
        <time>2017-05-26T02:19:24Z</time>
      </trkpt>
      <trkpt lat="40.695998000" lon="-3.883023000">
        <ele>978.508000</ele>
        <time>2017-05-26T02:19:44Z</time>
      </trkpt>
      <trkpt lat="40.695888000" lon="-3.883560000">
        <ele>979.077000</ele>
        <time>2017-05-26T02:20:04Z</time>
      </trkpt>
      <trkpt lat="40.695314000" lon="-3.885287000">
        <ele>979.083000</ele>
        <time>2017-05-26T02:20:24Z</time>
      </trkpt>
      <trkpt lat="40.695261000" lon="-3.885464000">
        <ele>978.925000</ele>
        <time>2017-05-26T02:20:44Z</time>
      </trkpt>
      <trkpt lat="40.695172000" lon="-3.885657000">
        <ele>979.068000</ele>
        <time>2017-05-26T02:21:04Z</time>
      </trkpt>
      <trkpt lat="40.695042000" lon="-3.885850000">
        <ele>979.211000</ele>
        <time>2017-05-26T02:21:24Z</time>
      </trkpt>
      <trkpt lat="40.694863000" lon="-3.886333000">
        <ele>980.367000</ele>
        <time>2017-05-26T02:21:44Z</time>
      </trkpt>
      <trkpt lat="40.694533000" lon="-3.887250000">
        <ele>981.771000</ele>
        <time>2017-05-26T02:22:04Z</time>
      </trkpt>
      <trkpt lat="40.694249000" lon="-3.888066000">
        <ele>982.634000</ele>
        <time>2017-05-26T02:22:24Z</time>
      </trkpt>
      <trkpt lat="40.694114000" lon="-3.888479000">
        <ele>983.046000</ele>
        <time>2017-05-26T02:22:44Z</time>
      </trkpt>
      <trkpt lat="40.693996000" lon="-3.888779000">
        <ele>982.388000</ele>
        <time>2017-05-26T02:23:04Z</time>
      </trkpt>
      <trkpt lat="40.693952000" lon="-3.889005000">
        <ele>982.216000</ele>
        <time>2017-05-26T02:23:24Z</time>
      </trkpt>
      <trkpt lat="40.693883000" lon="-3.889391000">
        <ele>982.008000</ele>
        <time>2017-05-26T02:23:44Z</time>
      </trkpt>
      <trkpt lat="40.693773000" lon="-3.890464000">
        <ele>981.275000</ele>
        <time>2017-05-26T02:24:04Z</time>
      </trkpt>
      <trkpt lat="40.693748000" lon="-3.890941000">
        <ele>981.031000</ele>
        <time>2017-05-26T02:24:24Z</time>
      </trkpt>
      <trkpt lat="40.693748000" lon="-3.892143000">
        <ele>981.033000</ele>
        <time>2017-05-26T02:24:44Z</time>
      </trkpt>
      <trkpt lat="40.693708000" lon="-3.892491000">
        <ele>980.446000</ele>
        <time>2017-05-26T02:25:04Z</time>
      </trkpt>
      <trkpt lat="40.693744000" lon="-3.892797000">
        <ele>980.559000</ele>
        <time>2017-05-26T02:25:24Z</time>
      </trkpt>
      <trkpt lat="40.693797000" lon="-3.893296000">
        <ele>981.245000</ele>
        <time>2017-05-26T02:25:44Z</time>
      </trkpt>
      <trkpt lat="40.693781000" lon="-3.893511000">
        <ele>981.289000</ele>
        <time>2017-05-26T02:26:04Z</time>
      </trkpt>
      <trkpt lat="40.693724000" lon="-3.893784000">
        <ele>981.422000</ele>
        <time>2017-05-26T02:26:24Z</time>
      </trkpt>
      <trkpt lat="40.693643000" lon="-3.894171000">
        <ele>981.242000</ele>
        <time>2017-05-26T02:26:44Z</time>
      </trkpt>
      <trkpt lat="40.693577000" lon="-3.894825000">
        <ele>978.422000</ele>
        <time>2017-05-26T02:27:04Z</time>
      </trkpt>
      <trkpt lat="40.693561000" lon="-3.895077000">
        <ele>977.814000</ele>
        <time>2017-05-26T02:27:24Z</time>
      </trkpt>
      <trkpt lat="40.693602000" lon="-3.895324000">
        <ele>978.008000</ele>
        <time>2017-05-26T02:27:44Z</time>
      </trkpt>
      <trkpt lat="40.693700000" lon="-3.895576000">
        <ele>978.235000</ele>
        <time>2017-05-26T02:28:04Z</time>
      </trkpt>
      <trkpt lat="40.693858000" lon="-3.895683000">
        <ele>978.481000</ele>
        <time>2017-05-26T02:28:24Z</time>
      </trkpt>
      <trkpt lat="40.694086000" lon="-3.895742000">
        <ele>980.963000</ele>
        <time>2017-05-26T02:28:44Z</time>
      </trkpt>
      <trkpt lat="40.694383000" lon="-3.895673000">
        <ele>983.256000</ele>
        <time>2017-05-26T02:29:04Z</time>
      </trkpt>
      <trkpt lat="40.694720000" lon="-3.895646000">
        <ele>988.319000</ele>
        <time>2017-05-26T02:29:24Z</time>
      </trkpt>
      <trkpt lat="40.695091000" lon="-3.895512000">
        <ele>990.045000</ele>
        <time>2017-05-26T02:29:44Z</time>
      </trkpt>
      <trkpt lat="40.695302000" lon="-3.895544000">
        <ele>990.159000</ele>
        <time>2017-05-26T02:30:04Z</time>
      </trkpt>
      <trkpt lat="40.695550000" lon="-3.895603000">
        <ele>990.682000</ele>
        <time>2017-05-26T02:30:24Z</time>
      </trkpt>
      <trkpt lat="40.695863000" lon="-3.895603000">
        <ele>993.086000</ele>
        <time>2017-05-26T02:30:44Z</time>
      </trkpt>
      <trkpt lat="40.696246000" lon="-3.895656000">
        <ele>995.660000</ele>
        <time>2017-05-26T02:31:04Z</time>
      </trkpt>
      <trkpt lat="40.696453000" lon="-3.895764000">
        <ele>996.726000</ele>
        <time>2017-05-26T02:31:24Z</time>
      </trkpt>
      <trkpt lat="40.696559000" lon="-3.895866000">
        <ele>997.108000</ele>
        <time>2017-05-26T02:31:44Z</time>
      </trkpt>
      <trkpt lat="40.696884000" lon="-3.895909000">
        <ele>999.349000</ele>
        <time>2017-05-26T02:32:04Z</time>
      </trkpt>
      <trkpt lat="40.697417000" lon="-3.896027000">
        <ele>1000.035000</ele>
        <time>2017-05-26T02:32:24Z</time>
      </trkpt>
      <trkpt lat="40.697779000" lon="-3.895893000">
        <ele>1000.837000</ele>
        <time>2017-05-26T02:32:44Z</time>
      </trkpt>
      <trkpt lat="40.698230000" lon="-3.895656000">
        <ele>1001.010000</ele>
        <time>2017-05-26T02:33:04Z</time>
      </trkpt>
      <trkpt lat="40.698645000" lon="-3.895496000">
        <ele>1002.333000</ele>
        <time>2017-05-26T02:33:24Z</time>
      </trkpt>
      <trkpt lat="40.699186000" lon="-3.895383000">
        <ele>1004.789000</ele>
        <time>2017-05-26T02:33:44Z</time>
      </trkpt>
      <trkpt lat="40.700374000" lon="-3.894814000">
        <ele>1013.053000</ele>
        <time>2017-05-26T02:34:04Z</time>
      </trkpt>
      <trkpt lat="40.700658000" lon="-3.894519000">
        <ele>1017.186000</ele>
        <time>2017-05-26T02:34:24Z</time>
      </trkpt>
      <trkpt lat="40.700874000" lon="-3.894272000">
        <ele>1021.839000</ele>
        <time>2017-05-26T02:34:44Z</time>
      </trkpt>
      <trkpt lat="40.701256000" lon="-3.893988000">
        <ele>1028.201000</ele>
        <time>2017-05-26T02:35:04Z</time>
      </trkpt>
      <trkpt lat="40.701557000" lon="-3.893779000">
        <ele>1032.221000</ele>
        <time>2017-05-26T02:35:24Z</time>
      </trkpt>
      <trkpt lat="40.702135000" lon="-3.893441000">
        <ele>1039.908000</ele>
        <time>2017-05-26T02:35:44Z</time>
      </trkpt>
      <trkpt lat="40.702358000" lon="-3.893237000">
        <ele>1040.294000</ele>
        <time>2017-05-26T02:36:04Z</time>
      </trkpt>
      <trkpt lat="40.702915000" lon="-3.892765000">
        <ele>1042.560000</ele>
        <time>2017-05-26T02:36:24Z</time>
      </trkpt>
      <trkpt lat="40.703253000" lon="-3.892524000">
        <ele>1043.672000</ele>
        <time>2017-05-26T02:36:44Z</time>
      </trkpt>
      <trkpt lat="40.704176000" lon="-3.891923000">
        <ele>1044.155000</ele>
        <time>2017-05-26T02:37:04Z</time>
      </trkpt>
      <trkpt lat="40.704457000" lon="-3.891628000">
        <ele>1044.118000</ele>
        <time>2017-05-26T02:37:24Z</time>
      </trkpt>
      <trkpt lat="40.704676000" lon="-3.891558000">
        <ele>1041.844000</ele>
        <time>2017-05-26T02:37:44Z</time>
      </trkpt>
      <trkpt lat="40.704945000" lon="-3.891606000">
        <ele>1037.498000</ele>
        <time>2017-05-26T02:38:04Z</time>
      </trkpt>
      <trkpt lat="40.705746000" lon="-3.891875000">
        <ele>1020.551000</ele>
        <time>2017-05-26T02:38:24Z</time>
      </trkpt>
      <trkpt lat="40.706193000" lon="-3.892046000">
        <ele>1011.697000</ele>
        <time>2017-05-26T02:38:44Z</time>
      </trkpt>
      <trkpt lat="40.706767000" lon="-3.892304000">
        <ele>1001.623000</ele>
        <time>2017-05-26T02:39:04Z</time>
      </trkpt>
      <trkpt lat="40.707478000" lon="-3.892738000">
        <ele>988.325000</ele>
        <time>2017-05-26T02:39:24Z</time>
      </trkpt>
      <trkpt lat="40.707995000" lon="-3.893049000">
        <ele>978.108000</ele>
        <time>2017-05-26T02:39:44Z</time>
      </trkpt>
      <trkpt lat="40.708686000" lon="-3.893403000">
        <ele>969.010000</ele>
        <time>2017-05-26T02:40:04Z</time>
      </trkpt>
      <trkpt lat="40.709121000" lon="-3.893602000">
        <ele>962.826000</ele>
        <time>2017-05-26T02:40:24Z</time>
      </trkpt>
      <trkpt lat="40.709581000" lon="-3.893656000">
        <ele>953.828000</ele>
        <time>2017-05-26T02:40:44Z</time>
      </trkpt>
      <trkpt lat="40.709727000" lon="-3.893591000">
        <ele>951.851000</ele>
        <time>2017-05-26T02:41:04Z</time>
      </trkpt>
      <trkpt lat="40.709841000" lon="-3.893414000">
        <ele>948.464000</ele>
        <time>2017-05-26T02:41:24Z</time>
      </trkpt>
      <trkpt lat="40.710105000" lon="-3.893151000">
        <ele>940.730000</ele>
        <time>2017-05-26T02:41:44Z</time>
      </trkpt>
      <trkpt lat="40.710300000" lon="-3.893157000">
        <ele>935.214000</ele>
        <time>2017-05-26T02:42:04Z</time>
      </trkpt>
      <trkpt lat="40.710418000" lon="-3.893334000">
        <ele>932.537000</ele>
        <time>2017-05-26T02:42:24Z</time>
      </trkpt>
      <trkpt lat="40.710524000" lon="-3.893527000">
        <ele>930.785000</ele>
        <time>2017-05-26T02:42:44Z</time>
      </trkpt>
      <trkpt lat="40.710784000" lon="-3.893623000">
        <ele>931.889000</ele>
        <time>2017-05-26T02:43:04Z</time>
      </trkpt>
      <trkpt lat="40.711081000" lon="-3.893666000">
        <ele>933.517000</ele>
        <time>2017-05-26T02:43:24Z</time>
      </trkpt>
      <trkpt lat="40.711284000" lon="-3.893554000">
        <ele>932.308000</ele>
        <time>2017-05-26T02:43:44Z</time>
      </trkpt>
      <trkpt lat="40.711451000" lon="-3.893479000">
        <ele>931.179000</ele>
        <time>2017-05-26T02:44:04Z</time>
      </trkpt>
      <trkpt lat="40.711850000" lon="-3.893403000">
        <ele>926.815000</ele>
        <time>2017-05-26T02:44:24Z</time>
      </trkpt>
      <trkpt lat="40.712089000" lon="-3.893425000">
        <ele>923.757000</ele>
        <time>2017-05-26T02:44:44Z</time>
      </trkpt>
      <trkpt lat="40.712240000" lon="-3.893355000">
        <ele>920.860000</ele>
        <time>2017-05-26T02:45:04Z</time>
      </trkpt>
      <trkpt lat="40.712472000" lon="-3.892888000">
        <ele>913.863000</ele>
        <time>2017-05-26T02:45:24Z</time>
      </trkpt>
      <trkpt lat="40.712724000" lon="-3.892856000">
        <ele>910.979000</ele>
        <time>2017-05-26T02:45:44Z</time>
      </trkpt>
      <trkpt lat="40.713240000" lon="-3.892727000">
        <ele>904.143000</ele>
        <time>2017-05-26T02:46:04Z</time>
      </trkpt>
      <trkpt lat="40.713358000" lon="-3.892642000">
        <ele>902.796000</ele>
        <time>2017-05-26T02:46:24Z</time>
      </trkpt>
      <trkpt lat="40.713500000" lon="-3.892497000">
        <ele>901.244000</ele>
        <time>2017-05-26T02:46:44Z</time>
      </trkpt>
      <trkpt lat="40.713570000" lon="-3.892373000">
        <ele>900.605000</ele>
        <time>2017-05-26T02:47:04Z</time>
      </trkpt>
      <trkpt lat="40.713610000" lon="-3.892196000">
        <ele>900.015000</ele>
        <time>2017-05-26T02:47:24Z</time>
      </trkpt>
      <trkpt lat="40.713610000" lon="-3.891912000">
        <ele>900.008000</ele>
        <time>2017-05-26T02:47:44Z</time>
      </trkpt>
      <trkpt lat="40.713618000" lon="-3.891687000">
        <ele>900.025000</ele>
        <time>2017-05-26T02:48:04Z</time>
      </trkpt>
      <trkpt lat="40.713830000" lon="-3.890780000">
        <ele>900.771000</ele>
        <time>2017-05-26T02:48:24Z</time>
      </trkpt>
      <trkpt lat="40.713935000" lon="-3.890249000">
        <ele>900.123000</ele>
        <time>2017-05-26T02:48:44Z</time>
      </trkpt>
      <trkpt lat="40.713903000" lon="-3.890072000">
        <ele>900.746000</ele>
        <time>2017-05-26T02:49:04Z</time>
      </trkpt>
      <trkpt lat="40.713818000" lon="-3.889949000">
        <ele>902.579000</ele>
        <time>2017-05-26T02:49:24Z</time>
      </trkpt>
      <trkpt lat="40.713663000" lon="-3.889890000">
        <ele>905.265000</ele>
        <time>2017-05-26T02:49:44Z</time>
      </trkpt>
      <trkpt lat="40.713415000" lon="-3.889836000">
        <ele>909.169000</ele>
        <time>2017-05-26T02:50:04Z</time>
      </trkpt>
      <trkpt lat="40.713208000" lon="-3.889847000">
        <ele>911.812000</ele>
        <time>2017-05-26T02:50:24Z</time>
      </trkpt>
      <trkpt lat="40.712951000" lon="-3.889890000">
        <ele>914.493000</ele>
        <time>2017-05-26T02:50:44Z</time>
      </trkpt>
      <trkpt lat="40.712756000" lon="-3.889906000">
        <ele>915.965000</ele>
        <time>2017-05-26T02:51:04Z</time>
      </trkpt>
      <trkpt lat="40.712610000" lon="-3.889917000">
        <ele>917.521000</ele>
        <time>2017-05-26T02:51:24Z</time>
      </trkpt>
      <trkpt lat="40.712512000" lon="-3.889890000">
        <ele>918.508000</ele>
        <time>2017-05-26T02:51:44Z</time>
      </trkpt>
      <trkpt lat="40.712398000" lon="-3.889809000">
        <ele>919.250000</ele>
        <time>2017-05-26T02:52:04Z</time>
      </trkpt>
      <trkpt lat="40.712325000" lon="-3.889616000">
        <ele>919.536000</ele>
        <time>2017-05-26T02:52:24Z</time>
      </trkpt>
      <trkpt lat="40.712293000" lon="-3.889117000">
        <ele>921.468000</ele>
        <time>2017-05-26T02:52:44Z</time>
      </trkpt>
      <trkpt lat="40.712285000" lon="-3.888286000">
        <ele>922.451000</ele>
        <time>2017-05-26T02:53:04Z</time>
      </trkpt>
      <trkpt lat="40.712175000" lon="-3.887572000">
        <ele>924.044000</ele>
        <time>2017-05-26T02:53:24Z</time>
      </trkpt>
      <trkpt lat="40.712016000" lon="-3.886757000">
        <ele>929.210000</ele>
        <time>2017-05-26T02:53:44Z</time>
      </trkpt>
      <trkpt lat="40.712150000" lon="-3.886220000">
        <ele>930.134000</ele>
        <time>2017-05-26T02:54:04Z</time>
      </trkpt>
      <trkpt lat="40.712216000" lon="-3.885727000">
        <ele>931.447000</ele>
        <time>2017-05-26T02:54:24Z</time>
      </trkpt>
      <trkpt lat="40.712183000" lon="-3.885378000">
        <ele>933.145000</ele>
        <time>2017-05-26T02:54:44Z</time>
      </trkpt>
      <trkpt lat="40.711894000" lon="-3.883817000">
        <ele>940.347000</ele>
        <time>2017-05-26T02:55:04Z</time>
      </trkpt>
      <trkpt lat="40.711614000" lon="-3.882954000">
        <ele>944.211000</ele>
        <time>2017-05-26T02:55:24Z</time>
      </trkpt>
      <trkpt lat="40.711504000" lon="-3.882632000">
        <ele>944.208000</ele>
        <time>2017-05-26T02:55:44Z</time>
      </trkpt>
      <trkpt lat="40.710947000" lon="-3.882009000">
        <ele>947.635000</ele>
        <time>2017-05-26T02:56:04Z</time>
      </trkpt>
      <trkpt lat="40.710947000" lon="-3.882009000">
        <ele>947.671000</ele>
        <time>2017-05-26T02:56:24Z</time>
      </trkpt>
      <trkpt lat="40.710868000" lon="-3.881789000">
        <ele>948.373000</ele>
        <time>2017-05-26T02:56:44Z</time>
      </trkpt>
      <trkpt lat="40.711099000" lon="-3.881205000">
        <ele>952.196000</ele>
        <time>2017-05-26T02:57:04Z</time>
      </trkpt>
      <trkpt lat="40.711219000" lon="-3.880947000">
        <ele>953.179000</ele>
        <time>2017-05-26T02:57:24Z</time>
      </trkpt>
      <trkpt lat="40.711329000" lon="-3.880137000">
        <ele>955.065000</ele>
        <time>2017-05-26T02:57:44Z</time>
      </trkpt>
      <trkpt lat="40.711264000" lon="-3.879864000">
        <ele>957.669000</ele>
        <time>2017-05-26T02:58:04Z</time>
      </trkpt>
      <trkpt lat="40.711305000" lon="-3.879574000">
        <ele>958.092000</ele>
        <time>2017-05-26T02:58:24Z</time>
      </trkpt>
      <trkpt lat="40.711199000" lon="-3.879145000">
        <ele>962.244000</ele>
        <time>2017-05-26T02:58:44Z</time>
      </trkpt>
      <trkpt lat="40.711183000" lon="-3.878882000">
        <ele>963.405000</ele>
        <time>2017-05-26T02:59:04Z</time>
      </trkpt>
      <trkpt lat="40.711130000" lon="-3.878683000">
        <ele>964.615000</ele>
        <time>2017-05-26T02:59:24Z</time>
      </trkpt>
      <trkpt lat="40.711032000" lon="-3.878404000">
        <ele>965.908000</ele>
        <time>2017-05-26T02:59:44Z</time>
      </trkpt>
      <trkpt lat="40.710988000" lon="-3.878227000">
        <ele>966.375000</ele>
        <time>2017-05-26T03:00:04Z</time>
      </trkpt>
      <trkpt lat="40.710963000" lon="-3.877991000">
        <ele>967.011000</ele>
        <time>2017-05-26T03:00:24Z</time>
      </trkpt>
      <trkpt lat="40.710931000" lon="-3.877621000">
        <ele>969.273000</ele>
        <time>2017-05-26T03:00:44Z</time>
      </trkpt>
      <trkpt lat="40.710878000" lon="-3.877407000">
        <ele>970.756000</ele>
        <time>2017-05-26T03:01:04Z</time>
      </trkpt>
      <trkpt lat="40.710805000" lon="-3.877165000">
        <ele>972.879000</ele>
        <time>2017-05-26T03:01:24Z</time>
      </trkpt>
      <trkpt lat="40.710707000" lon="-3.877015000">
        <ele>975.175000</ele>
        <time>2017-05-26T03:01:44Z</time>
      </trkpt>
      <trkpt lat="40.710451000" lon="-3.876736000">
        <ele>979.159000</ele>
        <time>2017-05-26T03:02:04Z</time>
      </trkpt>
      <trkpt lat="40.710231000" lon="-3.876565000">
        <ele>981.482000</ele>
        <time>2017-05-26T03:02:24Z</time>
      </trkpt>
      <trkpt lat="40.709857000" lon="-3.876291000">
        <ele>984.261000</ele>
        <time>2017-05-26T03:02:44Z</time>
      </trkpt>
      <trkpt lat="40.709552000" lon="-3.875974000">
        <ele>986.321000</ele>
        <time>2017-05-26T03:03:04Z</time>
      </trkpt>
      <trkpt lat="40.709410000" lon="-3.875765000">
        <ele>987.113000</ele>
        <time>2017-05-26T03:03:24Z</time>
      </trkpt>
      <trkpt lat="40.709272000" lon="-3.875476000">
        <ele>987.408000</ele>
        <time>2017-05-26T03:03:44Z</time>
      </trkpt>
      <trkpt lat="40.708995000" lon="-3.875100000">
        <ele>987.657000</ele>
        <time>2017-05-26T03:04:04Z</time>
      </trkpt>
      <trkpt lat="40.708759000" lon="-3.874708000">
        <ele>987.413000</ele>
        <time>2017-05-26T03:04:24Z</time>
      </trkpt>
      <trkpt lat="40.708458000" lon="-3.874290000">
        <ele>987.575000</ele>
        <time>2017-05-26T03:04:44Z</time>
      </trkpt>
      <trkpt lat="40.708218000" lon="-3.874043000">
        <ele>988.448000</ele>
        <time>2017-05-26T03:05:04Z</time>
      </trkpt>
      <trkpt lat="40.708027000" lon="-3.873872000">
        <ele>989.151000</ele>
        <time>2017-05-26T03:05:24Z</time>
      </trkpt>
      <trkpt lat="40.707734000" lon="-3.873437000">
        <ele>990.067000</ele>
        <time>2017-05-26T03:05:44Z</time>
      </trkpt>
      <trkpt lat="40.707576000" lon="-3.873078000">
        <ele>990.621000</ele>
        <time>2017-05-26T03:06:04Z</time>
      </trkpt>
      <trkpt lat="40.707438000" lon="-3.872863000">
        <ele>991.214000</ele>
        <time>2017-05-26T03:06:24Z</time>
      </trkpt>
      <trkpt lat="40.707320000" lon="-3.872638000">
        <ele>992.139000</ele>
        <time>2017-05-26T03:06:44Z</time>
      </trkpt>
      <trkpt lat="40.707194000" lon="-3.872311000">
        <ele>993.301000</ele>
        <time>2017-05-26T03:07:04Z</time>
      </trkpt>
      <trkpt lat="40.707137000" lon="-3.872101000">
        <ele>993.421000</ele>
        <time>2017-05-26T03:07:24Z</time>
      </trkpt>
      <trkpt lat="40.707063000" lon="-3.871661000">
        <ele>992.108000</ele>
        <time>2017-05-26T03:07:44Z</time>
      </trkpt>
      <trkpt lat="40.707007000" lon="-3.871517000">
        <ele>991.654000</ele>
        <time>2017-05-26T03:08:04Z</time>
      </trkpt>
      <trkpt lat="40.706913000" lon="-3.871388000">
        <ele>991.220000</ele>
        <time>2017-05-26T03:08:24Z</time>
      </trkpt>
      <trkpt lat="40.706807000" lon="-3.871275000">
        <ele>991.412000</ele>
        <time>2017-05-26T03:08:44Z</time>
      </trkpt>
      <trkpt lat="40.706714000" lon="-3.871093000">
        <ele>990.755000</ele>
        <time>2017-05-26T03:09:04Z</time>
      </trkpt>
      <trkpt lat="40.706604000" lon="-3.870975000">
        <ele>990.218000</ele>
        <time>2017-05-26T03:09:24Z</time>
      </trkpt>
      <trkpt lat="40.706425000" lon="-3.870825000">
        <ele>989.844000</ele>
        <time>2017-05-26T03:09:44Z</time>
      </trkpt>
      <trkpt lat="40.706250000" lon="-3.870626000">
        <ele>988.948000</ele>
        <time>2017-05-26T03:10:04Z</time>
      </trkpt>
      <trkpt lat="40.706059000" lon="-3.870513000">
        <ele>989.241000</ele>
        <time>2017-05-26T03:10:24Z</time>
      </trkpt>
      <trkpt lat="40.705929000" lon="-3.870401000">
        <ele>989.845000</ele>
        <time>2017-05-26T03:10:44Z</time>
      </trkpt>
      <trkpt lat="40.705559000" lon="-3.869703000">
        <ele>990.047000</ele>
        <time>2017-05-26T03:11:04Z</time>
      </trkpt>
      <trkpt lat="40.705315000" lon="-3.869344000">
        <ele>990.911000</ele>
        <time>2017-05-26T03:11:24Z</time>
      </trkpt>
      <trkpt lat="40.705205000" lon="-3.869247000">
        <ele>991.608000</ele>
        <time>2017-05-26T03:11:44Z</time>
      </trkpt>
      <trkpt lat="40.705059000" lon="-3.869199000">
        <ele>992.755000</ele>
        <time>2017-05-26T03:12:04Z</time>
      </trkpt>
      <trkpt lat="40.704664000" lon="-3.869151000">
        <ele>995.261000</ele>
        <time>2017-05-26T03:12:24Z</time>
      </trkpt>
      <trkpt lat="40.704335000" lon="-3.869172000">
        <ele>996.853000</ele>
        <time>2017-05-26T03:12:44Z</time>
      </trkpt>
      <trkpt lat="40.703896000" lon="-3.869237000">
        <ele>999.516000</ele>
        <time>2017-05-26T03:13:04Z</time>
      </trkpt>
      <trkpt lat="40.703530000" lon="-3.869306000">
        <ele>1002.459000</ele>
        <time>2017-05-26T03:13:24Z</time>
      </trkpt>
      <trkpt lat="40.703351000" lon="-3.869285000">
        <ele>1004.175000</ele>
        <time>2017-05-26T03:13:44Z</time>
      </trkpt>
      <trkpt lat="40.703107000" lon="-3.869221000">
        <ele>1006.799000</ele>
        <time>2017-05-26T03:14:04Z</time>
      </trkpt>
      <trkpt lat="40.702895000" lon="-3.869188000">
        <ele>1008.382000</ele>
        <time>2017-05-26T03:14:24Z</time>
      </trkpt>
      <trkpt lat="40.702594000" lon="-3.869221000">
        <ele>1010.184000</ele>
        <time>2017-05-26T03:14:44Z</time>
      </trkpt>
      <trkpt lat="40.702407000" lon="-3.869285000">
        <ele>1010.907000</ele>
        <time>2017-05-26T03:15:04Z</time>
      </trkpt>
      <trkpt lat="40.701899000" lon="-3.869392000">
        <ele>1010.517000</ele>
        <time>2017-05-26T03:15:24Z</time>
      </trkpt>
      <trkpt lat="40.701699000" lon="-3.869467000">
        <ele>1010.308000</ele>
        <time>2017-05-26T03:15:44Z</time>
      </trkpt>
      <trkpt lat="40.700784000" lon="-3.870090000">
        <ele>1010.179000</ele>
        <time>2017-05-26T03:16:04Z</time>
      </trkpt>
      <trkpt lat="40.700614000" lon="-3.870197000">
        <ele>1009.965000</ele>
        <time>2017-05-26T03:16:24Z</time>
      </trkpt>
      <trkpt lat="40.700280000" lon="-3.870342000">
        <ele>1007.327000</ele>
        <time>2017-05-26T03:16:44Z</time>
      </trkpt>
      <trkpt lat="40.700097000" lon="-3.870487000">
        <ele>1006.530000</ele>
        <time>2017-05-26T03:17:04Z</time>
      </trkpt>
      <trkpt lat="40.699638000" lon="-3.870841000">
        <ele>1004.773000</ele>
        <time>2017-05-26T03:17:24Z</time>
      </trkpt>
      <trkpt lat="40.699503000" lon="-3.870959000">
        <ele>1004.719000</ele>
        <time>2017-05-26T03:17:44Z</time>
      </trkpt>
      <trkpt lat="40.699389000" lon="-3.871120000">
        <ele>1004.693000</ele>
        <time>2017-05-26T03:18:04Z</time>
      </trkpt>
      <trkpt lat="40.699162000" lon="-3.871356000">
        <ele>1003.826000</ele>
        <time>2017-05-26T03:18:24Z</time>
      </trkpt>
      <trkpt lat="40.698702000" lon="-3.871801000">
        <ele>1001.786000</ele>
        <time>2017-05-26T03:18:44Z</time>
      </trkpt>
      <trkpt lat="40.698544000" lon="-3.871844000">
        <ele>1000.760000</ele>
        <time>2017-05-26T03:19:04Z</time>
      </trkpt>
      <trkpt lat="40.698426000" lon="-3.871887000">
        <ele>1000.226000</ele>
        <time>2017-05-26T03:19:24Z</time>
      </trkpt>
      <trkpt lat="40.698271000" lon="-3.872010000">
        <ele>999.408000</ele>
        <time>2017-05-26T03:19:44Z</time>
      </trkpt>
      <trkpt lat="40.698145000" lon="-3.872133000">
        <ele>998.489000</ele>
        <time>2017-05-26T03:20:04Z</time>
      </trkpt>
      <trkpt lat="40.698039000" lon="-3.872176000">
        <ele>997.765000</ele>
        <time>2017-05-26T03:20:24Z</time>
      </trkpt>
      <trkpt lat="40.697966000" lon="-3.872166000">
        <ele>997.277000</ele>
        <time>2017-05-26T03:20:44Z</time>
      </trkpt>
      <trkpt lat="40.697885000" lon="-3.872053000">
        <ele>996.230000</ele>
        <time>2017-05-26T03:21:04Z</time>
      </trkpt>
      <trkpt lat="40.697811000" lon="-3.871860000">
        <ele>994.973000</ele>
        <time>2017-05-26T03:21:24Z</time>
      </trkpt>
      <trkpt lat="40.697730000" lon="-3.871602000">
        <ele>993.499000</ele>
        <time>2017-05-26T03:21:44Z</time>
      </trkpt>
      <trkpt lat="40.697718000" lon="-3.871195000">
        <ele>992.633000</ele>
        <time>2017-05-26T03:22:04Z</time>
      </trkpt>
      <trkpt lat="40.697750000" lon="-3.870916000">
        <ele>992.116000</ele>
        <time>2017-05-26T03:22:24Z</time>
      </trkpt>
      <trkpt lat="40.698027000" lon="-3.869982000">
        <ele>991.646000</ele>
        <time>2017-05-26T03:22:44Z</time>
      </trkpt>
      <trkpt lat="40.698413000" lon="-3.868856000">
        <ele>991.588000</ele>
        <time>2017-05-26T03:23:04Z</time>
      </trkpt>
      <trkpt lat="40.698515000" lon="-3.868641000">
        <ele>991.416000</ele>
        <time>2017-05-26T03:23:24Z</time>
      </trkpt>
      <trkpt lat="40.698674000" lon="-3.868454000">
        <ele>991.908000</ele>
        <time>2017-05-26T03:23:44Z</time>
      </trkpt>
      <trkpt lat="40.698861000" lon="-3.868287000">
        <ele>992.615000</ele>
        <time>2017-05-26T03:24:04Z</time>
      </trkpt>
      <trkpt lat="40.698975000" lon="-3.868040000">
        <ele>992.351000</ele>
        <time>2017-05-26T03:24:24Z</time>
      </trkpt>
      <trkpt lat="40.699426000" lon="-3.866485000">
        <ele>989.263000</ele>
        <time>2017-05-26T03:24:44Z</time>
      </trkpt>
      <trkpt lat="40.699516000" lon="-3.866120000">
        <ele>989.386000</ele>
        <time>2017-05-26T03:25:04Z</time>
      </trkpt>
      <trkpt lat="40.699568000" lon="-3.865728000">
        <ele>988.429000</ele>
        <time>2017-05-26T03:25:24Z</time>
      </trkpt>
      <trkpt lat="40.699609000" lon="-3.865294000">
        <ele>987.765000</ele>
        <time>2017-05-26T03:25:44Z</time>
      </trkpt>
      <trkpt lat="40.699593000" lon="-3.865090000">
        <ele>987.559000</ele>
        <time>2017-05-26T03:26:04Z</time>
      </trkpt>
      <trkpt lat="40.699560000" lon="-3.864881000">
        <ele>987.032000</ele>
        <time>2017-05-26T03:26:24Z</time>
      </trkpt>
      <trkpt lat="40.699349000" lon="-3.863947000">
        <ele>983.586000</ele>
        <time>2017-05-26T03:26:44Z</time>
      </trkpt>
      <trkpt lat="40.698824000" lon="-3.862354000">
        <ele>976.560000</ele>
        <time>2017-05-26T03:27:04Z</time>
      </trkpt>
      <trkpt lat="40.698661000" lon="-3.861893000">
        <ele>975.426000</ele>
        <time>2017-05-26T03:27:24Z</time>
      </trkpt>
      <trkpt lat="40.698560000" lon="-3.861635000">
        <ele>974.808000</ele>
        <time>2017-05-26T03:27:44Z</time>
      </trkpt>
      <trkpt lat="40.698356000" lon="-3.860793000">
        <ele>975.119000</ele>
        <time>2017-05-26T03:28:04Z</time>
      </trkpt>
      <trkpt lat="40.698287000" lon="-3.860423000">
        <ele>974.695000</ele>
        <time>2017-05-26T03:28:24Z</time>
      </trkpt>
      <trkpt lat="40.698247000" lon="-3.859978000">
        <ele>974.717000</ele>
        <time>2017-05-26T03:28:44Z</time>
      </trkpt>
      <trkpt lat="40.698121000" lon="-3.859345000">
        <ele>972.360000</ele>
        <time>2017-05-26T03:29:04Z</time>
      </trkpt>
      <trkpt lat="40.697954000" lon="-3.858894000">
        <ele>969.353000</ele>
        <time>2017-05-26T03:29:24Z</time>
      </trkpt>
      <trkpt lat="40.697791000" lon="-3.858460000">
        <ele>968.649000</ele>
        <time>2017-05-26T03:29:44Z</time>
      </trkpt>
      <trkpt lat="40.697454000" lon="-3.857821000">
        <ele>968.523000</ele>
        <time>2017-05-26T03:30:04Z</time>
      </trkpt>
      <trkpt lat="40.696974000" lon="-3.857043000">
        <ele>966.946000</ele>
        <time>2017-05-26T03:30:24Z</time>
      </trkpt>
      <trkpt lat="40.696595000" lon="-3.856341000">
        <ele>965.589000</ele>
        <time>2017-05-26T03:30:44Z</time>
      </trkpt>
      <trkpt lat="40.696421000" lon="-3.856072000">
        <ele>964.406000</ele>
        <time>2017-05-26T03:31:04Z</time>
      </trkpt>
      <trkpt lat="40.696286000" lon="-3.855842000">
        <ele>964.226000</ele>
        <time>2017-05-26T03:31:24Z</time>
      </trkpt>
      <trkpt lat="40.696189000" lon="-3.855552000">
        <ele>963.608000</ele>
        <time>2017-05-26T03:31:44Z</time>
      </trkpt>
      <trkpt lat="40.696124000" lon="-3.853047000">
        <ele>958.019000</ele>
        <time>2017-05-26T03:32:04Z</time>
      </trkpt>
      <trkpt lat="40.696136000" lon="-3.851470000">
        <ele>953.465000</ele>
        <time>2017-05-26T03:32:24Z</time>
      </trkpt>
      <trkpt lat="40.696087000" lon="-3.848557000">
        <ele>945.817000</ele>
        <time>2017-05-26T03:32:44Z</time>
      </trkpt>
      <trkpt lat="40.696050000" lon="-3.846851000">
        <ele>942.170000</ele>
        <time>2017-05-26T03:33:04Z</time>
      </trkpt>
      <trkpt lat="40.696030000" lon="-3.846443000">
        <ele>941.433000</ele>
        <time>2017-05-26T03:33:24Z</time>
      </trkpt>
      <trkpt lat="40.695989000" lon="-3.846105000">
        <ele>940.639000</ele>
        <time>2017-05-26T03:33:44Z</time>
      </trkpt>
      <trkpt lat="40.695827000" lon="-3.845440000">
        <ele>938.513000</ele>
        <time>2017-05-26T03:34:04Z</time>
      </trkpt>
      <trkpt lat="40.695522000" lon="-3.844292000">
        <ele>933.396000</ele>
        <time>2017-05-26T03:34:24Z</time>
      </trkpt>
      <trkpt lat="40.695152000" lon="-3.842565000">
        <ele>925.842000</ele>
        <time>2017-05-26T03:34:44Z</time>
      </trkpt>
      <trkpt lat="40.695062000" lon="-3.842275000">
        <ele>924.422000</ele>
        <time>2017-05-26T03:35:04Z</time>
      </trkpt>
      <trkpt lat="40.694818000" lon="-3.841664000">
        <ele>923.014000</ele>
        <time>2017-05-26T03:35:24Z</time>
      </trkpt>
      <trkpt lat="40.694485000" lon="-3.841015000">
        <ele>921.108000</ele>
        <time>2017-05-26T03:35:44Z</time>
      </trkpt>
      <trkpt lat="40.694245000" lon="-3.840424000">
        <ele>919.945000</ele>
        <time>2017-05-26T03:36:04Z</time>
      </trkpt>
      <trkpt lat="40.694094000" lon="-3.839657000">
        <ele>916.511000</ele>
        <time>2017-05-26T03:36:24Z</time>
      </trkpt>
      <trkpt lat="40.694070000" lon="-3.839266000">
        <ele>914.683000</ele>
        <time>2017-05-26T03:36:44Z</time>
      </trkpt>
      <trkpt lat="40.693960000" lon="-3.838660000">
        <ele>912.216000</ele>
        <time>2017-05-26T03:37:04Z</time>
      </trkpt>
      <trkpt lat="40.693838000" lon="-3.838236000">
        <ele>910.749000</ele>
        <time>2017-05-26T03:37:24Z</time>
      </trkpt>
      <trkpt lat="40.693647000" lon="-3.837828000">
        <ele>910.165000</ele>
        <time>2017-05-26T03:37:44Z</time>
      </trkpt>
      <trkpt lat="40.693390000" lon="-3.837056000">
        <ele>905.869000</ele>
        <time>2017-05-26T03:38:04Z</time>
      </trkpt>
      <trkpt lat="40.692967000" lon="-3.835693000">
        <ele>901.522000</ele>
        <time>2017-05-26T03:38:24Z</time>
      </trkpt>
      <trkpt lat="40.692711000" lon="-3.834963000">
        <ele>897.384000</ele>
        <time>2017-05-26T03:38:44Z</time>
      </trkpt>
      <trkpt lat="40.692475000" lon="-3.834583000">
        <ele>891.507000</ele>
        <time>2017-05-26T03:39:04Z</time>
      </trkpt>
      <trkpt lat="40.692007000" lon="-3.833933000">
        <ele>886.817000</ele>
        <time>2017-05-26T03:39:24Z</time>
      </trkpt>
      <trkpt lat="40.691690000" lon="-3.833376000">
        <ele>885.108000</ele>
        <time>2017-05-26T03:39:44Z</time>
      </trkpt>
      <trkpt lat="40.691410000" lon="-3.832802000">
        <ele>884.969000</ele>
        <time>2017-05-26T03:40:04Z</time>
      </trkpt>
      <trkpt lat="40.691239000" lon="-3.832174000">
        <ele>884.035000</ele>
        <time>2017-05-26T03:40:24Z</time>
      </trkpt>
      <trkpt lat="40.690966000" lon="-3.831396000">
        <ele>883.527000</ele>
        <time>2017-05-26T03:40:44Z</time>
      </trkpt>
      <trkpt lat="40.690661000" lon="-3.830602000">
        <ele>881.590000</ele>
        <time>2017-05-26T03:41:04Z</time>
      </trkpt>
      <trkpt lat="40.690568000" lon="-3.830452000">
        <ele>881.073000</ele>
        <time>2017-05-26T03:41:24Z</time>
      </trkpt>
      <trkpt lat="40.690283000" lon="-3.829862000">
        <ele>878.569000</ele>
        <time>2017-05-26T03:41:44Z</time>
      </trkpt>
      <trkpt lat="40.690132000" lon="-3.829626000">
        <ele>878.073000</ele>
        <time>2017-05-26T03:42:04Z</time>
      </trkpt>
      <trkpt lat="40.689713000" lon="-3.828655000">
        <ele>876.236000</ele>
        <time>2017-05-26T03:42:24Z</time>
      </trkpt>
      <trkpt lat="40.689571000" lon="-3.828269000">
        <ele>875.825000</ele>
        <time>2017-05-26T03:42:44Z</time>
      </trkpt>
      <trkpt lat="40.689339000" lon="-3.827314000">
        <ele>874.026000</ele>
        <time>2017-05-26T03:43:04Z</time>
      </trkpt>
      <trkpt lat="40.689042000" lon="-3.826874000">
        <ele>871.508000</ele>
        <time>2017-05-26T03:43:24Z</time>
      </trkpt>
      <trkpt lat="40.688871000" lon="-3.826659000">
        <ele>869.008000</ele>
        <time>2017-05-26T03:43:44Z</time>
      </trkpt>
      <trkpt lat="40.688595000" lon="-3.826364000">
        <ele>868.043000</ele>
        <time>2017-05-26T03:44:04Z</time>
      </trkpt>
      <trkpt lat="40.688176000" lon="-3.825865000">
        <ele>866.459000</ele>
        <time>2017-05-26T03:44:24Z</time>
      </trkpt>
      <trkpt lat="40.687928000" lon="-3.825366000">
        <ele>863.791000</ele>
        <time>2017-05-26T03:44:44Z</time>
      </trkpt>
      <trkpt lat="40.687704000" lon="-3.825023000">
        <ele>861.574000</ele>
        <time>2017-05-26T03:45:04Z</time>
      </trkpt>
      <trkpt lat="40.687468000" lon="-3.824723000">
        <ele>858.077000</ele>
        <time>2017-05-26T03:45:24Z</time>
      </trkpt>
      <trkpt lat="40.687122000" lon="-3.824535000">
        <ele>855.233000</ele>
        <time>2017-05-26T03:45:44Z</time>
      </trkpt>
      <trkpt lat="40.687004000" lon="-3.824578000">
        <ele>855.547000</ele>
        <time>2017-05-26T03:46:04Z</time>
      </trkpt>
      <trkpt lat="40.686882000" lon="-3.824664000">
        <ele>856.660000</ele>
        <time>2017-05-26T03:46:24Z</time>
      </trkpt>
      <trkpt lat="40.686626000" lon="-3.824701000">
        <ele>857.618000</ele>
        <time>2017-05-26T03:46:44Z</time>
      </trkpt>
      <trkpt lat="40.686545000" lon="-3.824696000">
        <ele>857.398000</ele>
        <time>2017-05-26T03:47:04Z</time>
      </trkpt>
      <trkpt lat="40.686419000" lon="-3.824202000">
        <ele>851.517000</ele>
        <time>2017-05-26T03:47:24Z</time>
      </trkpt>
      <trkpt lat="40.686366000" lon="-3.824015000">
        <ele>848.708000</ele>
        <time>2017-05-26T03:47:44Z</time>
      </trkpt>
      <trkpt lat="40.686077000" lon="-3.823344000">
        <ele>841.292000</ele>
        <time>2017-05-26T03:48:04Z</time>
      </trkpt>
      <trkpt lat="40.685841000" lon="-3.823376000">
        <ele>842.568000</ele>
        <time>2017-05-26T03:48:24Z</time>
      </trkpt>
      <trkpt lat="40.685625000" lon="-3.823307000">
        <ele>841.820000</ele>
        <time>2017-05-26T03:48:44Z</time>
      </trkpt>
      <trkpt lat="40.685548000" lon="-3.823226000">
        <ele>841.863000</ele>
        <time>2017-05-26T03:49:04Z</time>
      </trkpt>
      <trkpt lat="40.685467000" lon="-3.823081000">
        <ele>842.836000</ele>
        <time>2017-05-26T03:49:24Z</time>
      </trkpt>
      <trkpt lat="40.685414000" lon="-3.822910000">
        <ele>844.872000</ele>
        <time>2017-05-26T03:49:44Z</time>
      </trkpt>
      <trkpt lat="40.685239000" lon="-3.822690000">
        <ele>848.966000</ele>
        <time>2017-05-26T03:50:04Z</time>
      </trkpt>
      <trkpt lat="40.685011000" lon="-3.822529000">
        <ele>850.979000</ele>
        <time>2017-05-26T03:50:24Z</time>
      </trkpt>
      <trkpt lat="40.684926000" lon="-3.822250000">
        <ele>853.647000</ele>
        <time>2017-05-26T03:50:44Z</time>
      </trkpt>
      <trkpt lat="40.684881000" lon="-3.821831000">
        <ele>857.129000</ele>
        <time>2017-05-26T03:51:04Z</time>
      </trkpt>
      <trkpt lat="40.684824000" lon="-3.821268000">
        <ele>860.221000</ele>
        <time>2017-05-26T03:51:24Z</time>
      </trkpt>
      <trkpt lat="40.684669000" lon="-3.820978000">
        <ele>861.708000</ele>
        <time>2017-05-26T03:51:44Z</time>
      </trkpt>
      <trkpt lat="40.684295000" lon="-3.820431000">
        <ele>865.095000</ele>
        <time>2017-05-26T03:52:04Z</time>
      </trkpt>
      <trkpt lat="40.684116000" lon="-3.820120000">
        <ele>866.931000</ele>
        <time>2017-05-26T03:52:24Z</time>
      </trkpt>
      <trkpt lat="40.684055000" lon="-3.819906000">
        <ele>868.193000</ele>
        <time>2017-05-26T03:52:44Z</time>
      </trkpt>
      <trkpt lat="40.684047000" lon="-3.819691000">
        <ele>868.996000</ele>
        <time>2017-05-26T03:53:04Z</time>
      </trkpt>
      <trkpt lat="40.683888000" lon="-3.819310000">
        <ele>869.539000</ele>
        <time>2017-05-26T03:53:24Z</time>
      </trkpt>
      <trkpt lat="40.683551000" lon="-3.818951000">
        <ele>872.145000</ele>
        <time>2017-05-26T03:53:44Z</time>
      </trkpt>
      <trkpt lat="40.683380000" lon="-3.818800000">
        <ele>870.889000</ele>
        <time>2017-05-26T03:54:04Z</time>
      </trkpt>
      <trkpt lat="40.683225000" lon="-3.818709000">
        <ele>870.172000</ele>
        <time>2017-05-26T03:54:24Z</time>
      </trkpt>
      <trkpt lat="40.682452000" lon="-3.818489000">
        <ele>870.972000</ele>
        <time>2017-05-26T03:54:44Z</time>
      </trkpt>
      <trkpt lat="40.682302000" lon="-3.818457000">
        <ele>870.713000</ele>
        <time>2017-05-26T03:55:04Z</time>
      </trkpt>
      <trkpt lat="40.682025000" lon="-3.818473000">
        <ele>870.114000</ele>
        <time>2017-05-26T03:55:24Z</time>
      </trkpt>
      <trkpt lat="40.681846000" lon="-3.818473000">
        <ele>869.608000</ele>
        <time>2017-05-26T03:55:44Z</time>
      </trkpt>
      <trkpt lat="40.681419000" lon="-3.818334000">
        <ele>868.138000</ele>
        <time>2017-05-26T03:56:04Z</time>
      </trkpt>
      <trkpt lat="40.680841000" lon="-3.818178000">
        <ele>867.674000</ele>
        <time>2017-05-26T03:56:24Z</time>
      </trkpt>
      <trkpt lat="40.680711000" lon="-3.818082000">
        <ele>867.936000</ele>
        <time>2017-05-26T03:56:44Z</time>
      </trkpt>
      <trkpt lat="40.680520000" lon="-3.817808000">
        <ele>868.779000</ele>
        <time>2017-05-26T03:57:04Z</time>
      </trkpt>
      <trkpt lat="40.680329000" lon="-3.817390000">
        <ele>869.212000</ele>
        <time>2017-05-26T03:57:24Z</time>
      </trkpt>
      <trkpt lat="40.680256000" lon="-3.817057000">
        <ele>868.938000</ele>
        <time>2017-05-26T03:57:44Z</time>
      </trkpt>
      <trkpt lat="40.680093000" lon="-3.816569000">
        <ele>868.672000</ele>
        <time>2017-05-26T03:58:04Z</time>
      </trkpt>
      <trkpt lat="40.679869000" lon="-3.815936000">
        <ele>868.535000</ele>
        <time>2017-05-26T03:58:24Z</time>
      </trkpt>
      <trkpt lat="40.679678000" lon="-3.815212000">
        <ele>867.821000</ele>
        <time>2017-05-26T03:58:44Z</time>
      </trkpt>
      <trkpt lat="40.679613000" lon="-3.815029000">
        <ele>867.641000</ele>
        <time>2017-05-26T03:59:04Z</time>
      </trkpt>
      <trkpt lat="40.679381000" lon="-3.814740000">
        <ele>866.505000</ele>
        <time>2017-05-26T03:59:24Z</time>
      </trkpt>
      <trkpt lat="40.679214000" lon="-3.814536000">
        <ele>864.708000</ele>
        <time>2017-05-26T03:59:44Z</time>
      </trkpt>
      <trkpt lat="40.679161000" lon="-3.814343000">
        <ele>863.683000</ele>
        <time>2017-05-26T04:00:04Z</time>
      </trkpt>
      <trkpt lat="40.679047000" lon="-3.813924000">
        <ele>860.549000</ele>
        <time>2017-05-26T04:00:24Z</time>
      </trkpt>
      <trkpt lat="40.679003000" lon="-3.813549000">
        <ele>858.411000</ele>
        <time>2017-05-26T04:00:44Z</time>
      </trkpt>
      <trkpt lat="40.678706000" lon="-3.813189000">
        <ele>853.864000</ele>
        <time>2017-05-26T04:01:04Z</time>
      </trkpt>
      <trkpt lat="40.678535000" lon="-3.813012000">
        <ele>851.657000</ele>
        <time>2017-05-26T04:01:24Z</time>
      </trkpt>
      <trkpt lat="40.678429000" lon="-3.812900000">
        <ele>850.893000</ele>
        <time>2017-05-26T04:01:44Z</time>
      </trkpt>
      <trkpt lat="40.678140000" lon="-3.812347000">
        <ele>845.277000</ele>
        <time>2017-05-26T04:02:04Z</time>
      </trkpt>
      <trkpt lat="40.677998000" lon="-3.812240000">
        <ele>843.720000</ele>
        <time>2017-05-26T04:02:24Z</time>
      </trkpt>
      <trkpt lat="40.677916000" lon="-3.812154000">
        <ele>842.553000</ele>
        <time>2017-05-26T04:02:44Z</time>
      </trkpt>
      <trkpt lat="40.677864000" lon="-3.811891000">
        <ele>840.904000</ele>
        <time>2017-05-26T04:03:04Z</time>
      </trkpt>
      <trkpt lat="40.677766000" lon="-3.811778000">
        <ele>840.614000</ele>
        <time>2017-05-26T04:03:24Z</time>
      </trkpt>
      <trkpt lat="40.677725000" lon="-3.811639000">
        <ele>841.008000</ele>
        <time>2017-05-26T04:03:44Z</time>
      </trkpt>
      <trkpt lat="40.677713000" lon="-3.811424000">
        <ele>842.386000</ele>
        <time>2017-05-26T04:04:04Z</time>
      </trkpt>
      <trkpt lat="40.677619000" lon="-3.811194000">
        <ele>842.942000</ele>
        <time>2017-05-26T04:04:24Z</time>
      </trkpt>
      <trkpt lat="40.677546000" lon="-3.810990000">
        <ele>843.454000</ele>
        <time>2017-05-26T04:04:44Z</time>
      </trkpt>
      <trkpt lat="40.677546000" lon="-3.810765000">
        <ele>844.627000</ele>
        <time>2017-05-26T04:05:04Z</time>
      </trkpt>
      <trkpt lat="40.677449000" lon="-3.810727000">
        <ele>843.320000</ele>
        <time>2017-05-26T04:05:24Z</time>
      </trkpt>
      <trkpt lat="40.677404000" lon="-3.810647000">
        <ele>842.646000</ele>
        <time>2017-05-26T04:05:44Z</time>
      </trkpt>
      <trkpt lat="40.677404000" lon="-3.810475000">
        <ele>842.450000</ele>
        <time>2017-05-26T04:06:04Z</time>
      </trkpt>
      <trkpt lat="40.677351000" lon="-3.810287000">
        <ele>840.843000</ele>
        <time>2017-05-26T04:06:24Z</time>
      </trkpt>
      <trkpt lat="40.676899000" lon="-3.809279000">
        <ele>836.079000</ele>
        <time>2017-05-26T04:06:44Z</time>
      </trkpt>
      <trkpt lat="40.676794000" lon="-3.809128000">
        <ele>836.805000</ele>
        <time>2017-05-26T04:07:04Z</time>
      </trkpt>
      <trkpt lat="40.676700000" lon="-3.809053000">
        <ele>837.025000</ele>
        <time>2017-05-26T04:07:24Z</time>
      </trkpt>
      <trkpt lat="40.676590000" lon="-3.808957000">
        <ele>838.108000</ele>
        <time>2017-05-26T04:07:44Z</time>
      </trkpt>
      <trkpt lat="40.676513000" lon="-3.808833000">
        <ele>839.558000</ele>
        <time>2017-05-26T04:08:04Z</time>
      </trkpt>
      <trkpt lat="40.676452000" lon="-3.808764000">
        <ele>840.214000</ele>
        <time>2017-05-26T04:08:24Z</time>
      </trkpt>
      <trkpt lat="40.676301000" lon="-3.808689000">
        <ele>838.466000</ele>
        <time>2017-05-26T04:08:44Z</time>
      </trkpt>
      <trkpt lat="40.676187000" lon="-3.808420000">
        <ele>836.669000</ele>
        <time>2017-05-26T04:09:04Z</time>
      </trkpt>
      <trkpt lat="40.676012000" lon="-3.808093000">
        <ele>834.432000</ele>
        <time>2017-05-26T04:09:24Z</time>
      </trkpt>
      <trkpt lat="40.675894000" lon="-3.808018000">
        <ele>833.138000</ele>
        <time>2017-05-26T04:09:44Z</time>
      </trkpt>
      <trkpt lat="40.675801000" lon="-3.807868000">
        <ele>833.752000</ele>
        <time>2017-05-26T04:10:04Z</time>
      </trkpt>
      <trkpt lat="40.675658000" lon="-3.807707000">
        <ele>836.455000</ele>
        <time>2017-05-26T04:10:24Z</time>
      </trkpt>
      <trkpt lat="40.675321000" lon="-3.807594000">
        <ele>840.044000</ele>
        <time>2017-05-26T04:10:44Z</time>
      </trkpt>
      <trkpt lat="40.675134000" lon="-3.807465000">
        <ele>842.205000</ele>
        <time>2017-05-26T04:11:04Z</time>
      </trkpt>
      <trkpt lat="40.674873000" lon="-3.807224000">
        <ele>845.415000</ele>
        <time>2017-05-26T04:11:24Z</time>
      </trkpt>
      <trkpt lat="40.674560000" lon="-3.806977000">
        <ele>847.808000</ele>
        <time>2017-05-26T04:11:44Z</time>
      </trkpt>
      <trkpt lat="40.674401000" lon="-3.806859000">
        <ele>848.715000</ele>
        <time>2017-05-26T04:12:04Z</time>
      </trkpt>
      <trkpt lat="40.674161000" lon="-3.806623000">
        <ele>850.551000</ele>
        <time>2017-05-26T04:12:24Z</time>
      </trkpt>
      <trkpt lat="40.673982000" lon="-3.806500000">
        <ele>852.943000</ele>
        <time>2017-05-26T04:12:44Z</time>
      </trkpt>
      <trkpt lat="40.673449000" lon="-3.806280000">
        <ele>858.966000</ele>
        <time>2017-05-26T04:13:04Z</time>
      </trkpt>
      <trkpt lat="40.673327000" lon="-3.806017000">
        <ele>860.749000</ele>
        <time>2017-05-26T04:13:24Z</time>
      </trkpt>
      <trkpt lat="40.673083000" lon="-3.806081000">
        <ele>861.045000</ele>
        <time>2017-05-26T04:13:44Z</time>
      </trkpt>
      <trkpt lat="40.672928000" lon="-3.805979000">
        <ele>862.289000</ele>
        <time>2017-05-26T04:14:04Z</time>
      </trkpt>
      <trkpt lat="40.672827000" lon="-3.805872000">
        <ele>863.412000</ele>
        <time>2017-05-26T04:14:24Z</time>
      </trkpt>
      <trkpt lat="40.672640000" lon="-3.805330000">
        <ele>866.338000</ele>
        <time>2017-05-26T04:14:44Z</time>
      </trkpt>
      <trkpt lat="40.672595000" lon="-3.805196000">
        <ele>867.170000</ele>
        <time>2017-05-26T04:15:04Z</time>
      </trkpt>
      <trkpt lat="40.672513000" lon="-3.805009000">
        <ele>868.017000</ele>
        <time>2017-05-26T04:15:24Z</time>
      </trkpt>
      <trkpt lat="40.672375000" lon="-3.804810000">
        <ele>869.108000</ele>
        <time>2017-05-26T04:15:44Z</time>
      </trkpt>
      <trkpt lat="40.672062000" lon="-3.804139000">
        <ele>874.284000</ele>
        <time>2017-05-26T04:16:04Z</time>
      </trkpt>
      <trkpt lat="40.671814000" lon="-3.803635000">
        <ele>877.990000</ele>
        <time>2017-05-26T04:16:24Z</time>
      </trkpt>
      <trkpt lat="40.671692000" lon="-3.803485000">
        <ele>878.572000</ele>
        <time>2017-05-26T04:16:44Z</time>
      </trkpt>
      <trkpt lat="40.671529000" lon="-3.803346000">
        <ele>879.045000</ele>
        <time>2017-05-26T04:17:04Z</time>
      </trkpt>
      <trkpt lat="40.671273000" lon="-3.803158000">
        <ele>881.798000</ele>
        <time>2017-05-26T04:17:24Z</time>
      </trkpt>
      <trkpt lat="40.671228000" lon="-3.803077000">
        <ele>882.864000</ele>
        <time>2017-05-26T04:17:44Z</time>
      </trkpt>
      <trkpt lat="40.671110000" lon="-3.802460000">
        <ele>886.118000</ele>
        <time>2017-05-26T04:18:04Z</time>
      </trkpt>
      <trkpt lat="40.671098000" lon="-3.802326000">
        <ele>886.691000</ele>
        <time>2017-05-26T04:18:24Z</time>
      </trkpt>
      <trkpt lat="40.670992000" lon="-3.802155000">
        <ele>887.238000</ele>
        <time>2017-05-26T04:18:44Z</time>
      </trkpt>
      <trkpt lat="40.670914000" lon="-3.802031000">
        <ele>887.770000</ele>
        <time>2017-05-26T04:19:04Z</time>
      </trkpt>
      <trkpt lat="40.670874000" lon="-3.801849000">
        <ele>888.317000</ele>
        <time>2017-05-26T04:19:24Z</time>
      </trkpt>
      <trkpt lat="40.670760000" lon="-3.801296000">
        <ele>889.908000</ele>
        <time>2017-05-26T04:19:44Z</time>
      </trkpt>
      <trkpt lat="40.670707000" lon="-3.801109000">
        <ele>891.534000</ele>
        <time>2017-05-26T04:20:04Z</time>
      </trkpt>
      <trkpt lat="40.670552000" lon="-3.800878000">
        <ele>892.810000</ele>
        <time>2017-05-26T04:20:24Z</time>
      </trkpt>
      <trkpt lat="40.670402000" lon="-3.800760000">
        <ele>893.312000</ele>
        <time>2017-05-26T04:20:44Z</time>
      </trkpt>
      <trkpt lat="40.670280000" lon="-3.800658000">
        <ele>893.685000</ele>
        <time>2017-05-26T04:21:04Z</time>
      </trkpt>
      <trkpt lat="40.670190000" lon="-3.800529000">
        <ele>894.158000</ele>
        <time>2017-05-26T04:21:24Z</time>
      </trkpt>
      <trkpt lat="40.670032000" lon="-3.800315000">
        <ele>894.944000</ele>
        <time>2017-05-26T04:21:44Z</time>
      </trkpt>
      <trkpt lat="40.669828000" lon="-3.799800000">
        <ele>896.168000</ele>
        <time>2017-05-26T04:22:04Z</time>
      </trkpt>
      <trkpt lat="40.669747000" lon="-3.799505000">
        <ele>896.281000</ele>
        <time>2017-05-26T04:22:24Z</time>
      </trkpt>
      <trkpt lat="40.669698000" lon="-3.799236000">
        <ele>896.778000</ele>
        <time>2017-05-26T04:22:44Z</time>
      </trkpt>
      <trkpt lat="40.669600000" lon="-3.799027000">
        <ele>896.833000</ele>
        <time>2017-05-26T04:23:04Z</time>
      </trkpt>
      <trkpt lat="40.669531000" lon="-3.798410000">
        <ele>894.626000</ele>
        <time>2017-05-26T04:23:24Z</time>
      </trkpt>
      <trkpt lat="40.669531000" lon="-3.798078000">
        <ele>893.408000</ele>
        <time>2017-05-26T04:23:44Z</time>
      </trkpt>
      <trkpt lat="40.669556000" lon="-3.797740000">
        <ele>892.288000</ele>
        <time>2017-05-26T04:24:04Z</time>
      </trkpt>
      <trkpt lat="40.669486000" lon="-3.796715000">
        <ele>887.414000</ele>
        <time>2017-05-26T04:24:24Z</time>
      </trkpt>
      <trkpt lat="40.669320000" lon="-3.796189000">
        <ele>883.876000</ele>
        <time>2017-05-26T04:24:44Z</time>
      </trkpt>
      <trkpt lat="40.669193000" lon="-3.795851000">
        <ele>882.279000</ele>
        <time>2017-05-26T04:25:04Z</time>
      </trkpt>
      <trkpt lat="40.669108000" lon="-3.795739000">
        <ele>880.812000</ele>
        <time>2017-05-26T04:25:24Z</time>
      </trkpt>
      <trkpt lat="40.668982000" lon="-3.795358000">
        <ele>878.098000</ele>
        <time>2017-05-26T04:25:44Z</time>
      </trkpt>
      <trkpt lat="40.668725000" lon="-3.794848000">
        <ele>874.992000</ele>
        <time>2017-05-26T04:26:04Z</time>
      </trkpt>
      <trkpt lat="40.668489000" lon="-3.794328000">
        <ele>871.925000</ele>
        <time>2017-05-26T04:26:24Z</time>
      </trkpt>
      <trkpt lat="40.668388000" lon="-3.793845000">
        <ele>870.274000</ele>
        <time>2017-05-26T04:26:44Z</time>
      </trkpt>
      <trkpt lat="40.668323000" lon="-3.793346000">
        <ele>870.056000</ele>
        <time>2017-05-26T04:27:04Z</time>
      </trkpt>
      <trkpt lat="40.668302000" lon="-3.792885000">
        <ele>869.921000</ele>
        <time>2017-05-26T04:27:24Z</time>
      </trkpt>
      <trkpt lat="40.668213000" lon="-3.792343000">
        <ele>869.608000</ele>
        <time>2017-05-26T04:27:44Z</time>
      </trkpt>
      <trkpt lat="40.668144000" lon="-3.791989000">
        <ele>869.388000</ele>
        <time>2017-05-26T04:28:04Z</time>
      </trkpt>
      <trkpt lat="40.668070000" lon="-3.791683000">
        <ele>869.164000</ele>
        <time>2017-05-26T04:28:24Z</time>
      </trkpt>
      <trkpt lat="40.667830000" lon="-3.791088000">
        <ele>873.746000</ele>
        <time>2017-05-26T04:28:44Z</time>
      </trkpt>
      <trkpt lat="40.667342000" lon="-3.789983000">
        <ele>879.119000</ele>
        <time>2017-05-26T04:29:04Z</time>
      </trkpt>
      <trkpt lat="40.666658000" lon="-3.788336000">
        <ele>883.912000</ele>
        <time>2017-05-26T04:29:24Z</time>
      </trkpt>
      <trkpt lat="40.666182000" lon="-3.786689000">
        <ele>887.198000</ele>
        <time>2017-05-26T04:29:44Z</time>
      </trkpt>
      <trkpt lat="40.666052000" lon="-3.786448000">
        <ele>887.752000</ele>
        <time>2017-05-26T04:30:04Z</time>
      </trkpt>
      <trkpt lat="40.665926000" lon="-3.786120000">
        <ele>889.325000</ele>
        <time>2017-05-26T04:30:24Z</time>
      </trkpt>
      <trkpt lat="40.665698000" lon="-3.785976000">
        <ele>890.588000</ele>
        <time>2017-05-26T04:30:44Z</time>
      </trkpt>
      <trkpt lat="40.664994000" lon="-3.786346000">
        <ele>889.224000</ele>
        <time>2017-05-26T04:31:04Z</time>
      </trkpt>
      <trkpt lat="40.664892000" lon="-3.786496000">
        <ele>888.526000</ele>
        <time>2017-05-26T04:31:24Z</time>
      </trkpt>
      <trkpt lat="40.664811000" lon="-3.786711000">
        <ele>886.908000</ele>
        <time>2017-05-26T04:31:44Z</time>
      </trkpt>
      <trkpt lat="40.664689000" lon="-3.786893000">
        <ele>884.489000</ele>
        <time>2017-05-26T04:32:04Z</time>
      </trkpt>
      <trkpt lat="40.664530000" lon="-3.786984000">
        <ele>883.065000</ele>
        <time>2017-05-26T04:32:24Z</time>
      </trkpt>
      <trkpt lat="40.664180000" lon="-3.786877000">
        <ele>882.587000</ele>
        <time>2017-05-26T04:32:44Z</time>
      </trkpt>
      <trkpt lat="40.663863000" lon="-3.786855000">
        <ele>882.560000</ele>
        <time>2017-05-26T04:33:04Z</time>
      </trkpt>
      <trkpt lat="40.663708000" lon="-3.786920000">
        <ele>880.943000</ele>
        <time>2017-05-26T04:33:24Z</time>
      </trkpt>
      <trkpt lat="40.662858000" lon="-3.787397000">
        <ele>876.369000</ele>
        <time>2017-05-26T04:33:44Z</time>
      </trkpt>
      <trkpt lat="40.662512000" lon="-3.787617000">
        <ele>875.013000</ele>
        <time>2017-05-26T04:34:04Z</time>
      </trkpt>
      <trkpt lat="40.662032000" lon="-3.787982000">
        <ele>873.826000</ele>
        <time>2017-05-26T04:34:24Z</time>
      </trkpt>
      <trkpt lat="40.661812000" lon="-3.788148000">
        <ele>873.286000</ele>
        <time>2017-05-26T04:34:44Z</time>
      </trkpt>
      <trkpt lat="40.661531000" lon="-3.788314000">
        <ele>872.060000</ele>
        <time>2017-05-26T04:35:04Z</time>
      </trkpt>
      <trkpt lat="40.661348000" lon="-3.788513000">
        <ele>871.326000</ele>
        <time>2017-05-26T04:35:24Z</time>
      </trkpt>
      <trkpt lat="40.661190000" lon="-3.788706000">
        <ele>871.008000</ele>
        <time>2017-05-26T04:35:44Z</time>
      </trkpt>
      <trkpt lat="40.661100000" lon="-3.788787000">
        <ele>871.029000</ele>
        <time>2017-05-26T04:36:04Z</time>
      </trkpt>
      <trkpt lat="40.660933000" lon="-3.788878000">
        <ele>871.015000</ele>
        <time>2017-05-26T04:36:24Z</time>
      </trkpt>
      <trkpt lat="40.660730000" lon="-3.789071000">
        <ele>870.247000</ele>
        <time>2017-05-26T04:36:44Z</time>
      </trkpt>
      <trkpt lat="40.660591000" lon="-3.789173000">
        <ele>870.040000</ele>
        <time>2017-05-26T04:37:04Z</time>
      </trkpt>
      <trkpt lat="40.659664000" lon="-3.789629000">
        <ele>869.973000</ele>
        <time>2017-05-26T04:37:24Z</time>
      </trkpt>
      <trkpt lat="40.659391000" lon="-3.789704000">
        <ele>869.159000</ele>
        <time>2017-05-26T04:37:44Z</time>
      </trkpt>
      <trkpt lat="40.658508000" lon="-3.789827000">
        <ele>866.913000</ele>
        <time>2017-05-26T04:38:04Z</time>
      </trkpt>
      <trkpt lat="40.658068000" lon="-3.789859000">
        <ele>864.166000</ele>
        <time>2017-05-26T04:38:24Z</time>
      </trkpt>
      <trkpt lat="40.656904000" lon="-3.789951000">
        <ele>860.081000</ele>
        <time>2017-05-26T04:38:44Z</time>
      </trkpt>
      <trkpt lat="40.656355000" lon="-3.790004000">
        <ele>860.061000</ele>
        <time>2017-05-26T04:39:04Z</time>
      </trkpt>
      <trkpt lat="40.655859000" lon="-3.790079000">
        <ele>860.017000</ele>
        <time>2017-05-26T04:39:24Z</time>
      </trkpt>
      <trkpt lat="40.655561000" lon="-3.790106000">
        <ele>860.008000</ele>
        <time>2017-05-26T04:39:44Z</time>
      </trkpt>
      <trkpt lat="40.654975000" lon="-3.790149000">
        <ele>860.049000</ele>
        <time>2017-05-26T04:40:04Z</time>
      </trkpt>
      <trkpt lat="40.653803000" lon="-3.790171000">
        <ele>857.755000</ele>
        <time>2017-05-26T04:40:24Z</time>
      </trkpt>
      <trkpt lat="40.653299000" lon="-3.790154000">
        <ele>855.937000</ele>
        <time>2017-05-26T04:40:44Z</time>
      </trkpt>
      <trkpt lat="40.653095000" lon="-3.790160000">
        <ele>855.560000</ele>
        <time>2017-05-26T04:41:04Z</time>
      </trkpt>
      <trkpt lat="40.652945000" lon="-3.790160000">
        <ele>855.183000</ele>
        <time>2017-05-26T04:41:24Z</time>
      </trkpt>
      <trkpt lat="40.652786000" lon="-3.790128000">
        <ele>854.529000</ele>
        <time>2017-05-26T04:41:44Z</time>
      </trkpt>
      <trkpt lat="40.652704000" lon="-3.790090000">
        <ele>854.113000</ele>
        <time>2017-05-26T04:42:04Z</time>
      </trkpt>
      <trkpt lat="40.652481000" lon="-3.789865000">
        <ele>852.976000</ele>
        <time>2017-05-26T04:42:24Z</time>
      </trkpt>
      <trkpt lat="40.653002000" lon="-3.788937000">
        <ele>852.862000</ele>
        <time>2017-05-26T04:42:44Z</time>
      </trkpt>
      <trkpt lat="40.653099000" lon="-3.788642000">
        <ele>852.183000</ele>
        <time>2017-05-26T04:43:04Z</time>
      </trkpt>
      <trkpt lat="40.653067000" lon="-3.788513000">
        <ele>851.611000</ele>
        <time>2017-05-26T04:43:24Z</time>
      </trkpt>
      <trkpt lat="40.652997000" lon="-3.788422000">
        <ele>851.308000</ele>
        <time>2017-05-26T04:43:44Z</time>
      </trkpt>
      <trkpt lat="40.652729000" lon="-3.788454000">
        <ele>850.977000</ele>
        <time>2017-05-26T04:44:04Z</time>
      </trkpt>
      <trkpt lat="40.651899000" lon="-3.788465000">
        <ele>850.493000</ele>
        <time>2017-05-26T04:44:24Z</time>
      </trkpt>
      <trkpt lat="40.651178000" lon="-3.788438000">
        <ele>850.085000</ele>
        <time>2017-05-26T04:44:44Z</time>
      </trkpt>
      <trkpt lat="40.650250000" lon="-3.788368000">
        <ele>850.018000</ele>
        <time>2017-05-26T04:45:04Z</time>
      </trkpt>
      <trkpt lat="40.649990000" lon="-3.788363000">
        <ele>850.051000</ele>
        <time>2017-05-26T04:45:24Z</time>
      </trkpt>
      <trkpt lat="40.649204000" lon="-3.788416000">
        <ele>850.097000</ele>
        <time>2017-05-26T04:45:44Z</time>
      </trkpt>
      <trkpt lat="40.648793000" lon="-3.788416000">
        <ele>848.731000</ele>
        <time>2017-05-26T04:46:04Z</time>
      </trkpt>
      <trkpt lat="40.648321000" lon="-3.788411000">
        <ele>845.254000</ele>
        <time>2017-05-26T04:46:24Z</time>
      </trkpt>
      <trkpt lat="40.648162000" lon="-3.788454000">
        <ele>844.833000</ele>
        <time>2017-05-26T04:46:44Z</time>
      </trkpt>
      <trkpt lat="40.648044000" lon="-3.788411000">
        <ele>844.223000</ele>
        <time>2017-05-26T04:47:04Z</time>
      </trkpt>
      <trkpt lat="40.647800000" lon="-3.788416000">
        <ele>843.415000</ele>
        <time>2017-05-26T04:47:24Z</time>
      </trkpt>
      <trkpt lat="40.647324000" lon="-3.788416000">
        <ele>841.308000</ele>
        <time>2017-05-26T04:47:44Z</time>
      </trkpt>
      <trkpt lat="40.647295000" lon="-3.787998000">
        <ele>840.584000</ele>
        <time>2017-05-26T04:48:04Z</time>
      </trkpt>
      <trkpt lat="40.647214000" lon="-3.787912000">
        <ele>840.060000</ele>
        <time>2017-05-26T04:48:24Z</time>
      </trkpt>
      <trkpt lat="40.647153000" lon="-3.787789000">
        <ele>839.512000</ele>
        <time>2017-05-26T04:48:44Z</time>
      </trkpt>
      <trkpt lat="40.646864000" lon="-3.787789000">
        <ele>837.815000</ele>
        <time>2017-05-26T04:49:04Z</time>
      </trkpt>
      <trkpt lat="40.646860000" lon="-3.785525000">
        <ele>828.538000</ele>
        <time>2017-05-26T04:49:24Z</time>
      </trkpt>
      <trkpt lat="40.646860" lon="-3.785517">
        <ele>822.057</ele>
        <time>2016-05-04T11:31:29Z</time>
      </trkpt>
      <trkpt lat="40.646915" lon="-3.784133">
        <ele>817.000</ele>
        <time>2016-05-04T11:31:49Z</time>
      </trkpt>
      <trkpt lat="40.646390" lon="-3.783728">
        <ele>811.020</ele>
        <time>2016-05-04T11:32:09Z</time>
      </trkpt>
      <trkpt lat="40.646201" lon="-3.783154">
        <ele>808.008</ele>
        <time>2016-05-04T11:32:29Z</time>
      </trkpt>
      <trkpt lat="40.645472" lon="-3.782459">
        <ele>805.086</ele>
        <time>2016-05-04T11:32:49Z</time>
      </trkpt>
      <trkpt lat="40.645224" lon="-3.781810">
        <ele>806.038</ele>
        <time>2016-05-04T11:33:09Z</time>
      </trkpt>
      <trkpt lat="40.644727" lon="-3.781655">
        <ele>808.049</ele>
        <time>2016-05-04T11:33:29Z</time>
      </trkpt>
      <trkpt lat="40.643850" lon="-3.780786">
        <ele>806.048</ele>
        <time>2016-05-04T11:33:49Z</time>
      </trkpt>
      <trkpt lat="40.642346" lon="-3.780590">
        <ele>799.085</ele>
        <time>2016-05-04T11:34:09Z</time>
      </trkpt>
      <trkpt lat="40.641837" lon="-3.779659">
        <ele>797.056</ele>
        <time>2016-05-04T11:34:29Z</time>
      </trkpt>
      <trkpt lat="40.640429" lon="-3.780064">
        <ele>799.095</ele>
        <time>2016-05-04T11:34:49Z</time>
      </trkpt>
      <trkpt lat="40.639527" lon="-3.779820">
        <ele>787.096</ele>
        <time>2016-05-04T11:35:09Z</time>
      </trkpt>
      <trkpt lat="40.639061" lon="-3.779383">
        <ele>785.039</ele>
        <time>2016-05-04T11:35:29Z</time>
      </trkpt>
      <trkpt lat="40.637771" lon="-3.779318">
        <ele>781.001</ele>
        <time>2016-05-04T11:35:49Z</time>
      </trkpt>
      <trkpt lat="40.637062" lon="-3.779377">
        <ele>781.021</ele>
        <time>2016-05-04T11:36:09Z</time>
      </trkpt>
      <trkpt lat="40.635556" lon="-3.779780">
        <ele>785.008</ele>
        <time>2016-05-04T11:36:29Z</time>
      </trkpt>
      <trkpt lat="40.634978" lon="-3.780112">
        <ele>786.014</ele>
        <time>2016-05-04T11:36:49Z</time>
      </trkpt>
      <trkpt lat="40.633993" lon="-3.780246">
        <ele>790.096</ele>
        <time>2016-05-04T11:37:09Z</time>
      </trkpt>
      <trkpt lat="40.632999" lon="-3.780831">
        <ele>796.037</ele>
        <time>2016-05-04T11:37:29Z</time>
      </trkpt>
      <trkpt lat="40.630980" lon="-3.783111">
        <ele>794.026</ele>
        <time>2016-05-04T11:37:49Z</time>
      </trkpt>
      <trkpt lat="40.628265" lon="-3.785080">
        <ele>796.053</ele>
        <time>2016-05-04T11:38:09Z</time>
      </trkpt>
      <trkpt lat="40.627593" lon="-3.785718">
        <ele>795.054</ele>
        <time>2016-05-04T11:38:29Z</time>
      </trkpt>
      <trkpt lat="40.624381" lon="-3.787284">
        <ele>770.063</ele>
        <time>2016-05-04T11:38:49Z</time>
      </trkpt>
      <trkpt lat="40.622723" lon="-3.787365">
        <ele>749.044</ele>
        <time>2016-05-04T11:39:09Z</time>
      </trkpt>
      <trkpt lat="40.622280" lon="-3.787070">
        <ele>752.025</ele>
        <time>2016-05-04T11:39:29Z</time>
      </trkpt>
      <trkpt lat="40.621425" lon="-3.787826">
        <ele>750.026</ele>
        <time>2016-05-04T11:39:49Z</time>
      </trkpt>
      <trkpt lat="40.620390" lon="-3.788186">
        <ele>738.008</ele>
        <time>2016-05-04T11:40:09Z</time>
      </trkpt>
      <trkpt lat="40.620036" lon="-3.788084">
        <ele>737.008</ele>
        <time>2016-05-04T11:40:29Z</time>
      </trkpt>
      <trkpt lat="40.619116" lon="-3.789554">
        <ele>734.033</ele>
        <time>2016-05-04T11:40:49Z</time>
      </trkpt>
      <trkpt lat="40.618713" lon="-3.789854">
        <ele>731.055</ele>
        <time>2016-05-04T11:41:09Z</time>
      </trkpt>
      <trkpt lat="40.618139" lon="-3.790889">
        <ele>726.066</ele>
        <time>2016-05-04T11:41:29Z</time>
      </trkpt>
      <trkpt lat="40.616701" lon="-3.791919">
        <ele>732.035</ele>
        <time>2016-05-04T11:41:49Z</time>
      </trkpt>
      <trkpt lat="40.616180" lon="-3.792080">
        <ele>736.062</ele>
        <time>2016-05-04T11:42:09Z</time>
      </trkpt>
      <trkpt lat="40.615158" lon="-3.793861">
        <ele>724.033</ele>
        <time>2016-05-04T11:42:29Z</time>
      </trkpt>
      <trkpt lat="40.614095" lon="-3.794784">
        <ele>724.092</ele>
        <time>2016-05-04T11:42:49Z</time>
      </trkpt>
      <trkpt lat="40.613863" lon="-3.796222">
        <ele>724.043</ele>
        <time>2016-05-04T11:43:09Z</time>
      </trkpt>
      <trkpt lat="40.613549" lon="-3.796678">
        <ele>724.042</ele>
        <time>2016-05-04T11:43:29Z</time>
      </trkpt>
      <trkpt lat="40.612706" lon="-3.795851">
        <ele>712.022</ele>
        <time>2016-05-04T11:43:49Z</time>
      </trkpt>
      <trkpt lat="40.611240" lon="-3.795025">
        <ele>697.014</ele>
        <time>2016-05-04T11:44:09Z</time>
      </trkpt>
      <trkpt lat="40.610955" lon="-3.795487">
        <ele>693.008</ele>
        <time>2016-05-04T11:44:29Z</time>
      </trkpt>
      <trkpt lat="40.610870" lon="-3.796130">
        <ele>692.055</ele>
        <time>2016-05-04T11:44:49Z</time>
      </trkpt>
      <trkpt lat="40.609819" lon="-3.796012">
        <ele>678.037</ele>
        <time>2016-05-04T11:45:09Z</time>
      </trkpt>
      <trkpt lat="40.609681" lon="-3.796141">
        <ele>678.078</ele>
        <time>2016-05-04T11:45:29Z</time>
      </trkpt>
      <trkpt lat="40.609668" lon="-3.796570">
        <ele>678.057</ele>
        <time>2016-05-04T11:45:49Z</time>
      </trkpt>
      <trkpt lat="40.610088" lon="-3.797305">
        <ele>681.024</ele>
        <time>2016-05-04T11:46:09Z</time>
      </trkpt>
      <trkpt lat="40.609994" lon="-3.797573">
        <ele>682.045</ele>
        <time>2016-05-04T11:46:29Z</time>
      </trkpt>
      <trkpt lat="40.608312" lon="-3.797745">
        <ele>680.034</ele>
        <time>2016-05-04T11:46:49Z</time>
      </trkpt>
      <trkpt lat="40.607209" lon="-3.798501">
        <ele>678.095</ele>
        <time>2016-05-04T11:47:09Z</time>
      </trkpt>
      <trkpt lat="40.605579" lon="-3.800164">
        <ele>662.052</ele>
        <time>2016-05-04T11:47:29Z</time>
      </trkpt>
      <trkpt lat="40.604822" lon="-3.800272">
        <ele>655.053</ele>
        <time>2016-05-04T11:47:49Z</time>
      </trkpt>
      <trkpt lat="40.600765" lon="-3.802487">
        <ele>630.008</ele>
        <time>2016-05-04T11:48:09Z</time>
      </trkpt>
      <trkpt lat="40.599947" lon="-3.802584">
        <ele>627.008</ele>
        <time>2016-05-04T11:48:29Z</time>
      </trkpt>
      <trkpt lat="40.599784" lon="-3.803083">
        <ele>626.066</ele>
        <time>2016-05-04T11:48:49Z</time>
      </trkpt>
      <trkpt lat="40.599002" lon="-3.803394">
        <ele>620.048</ele>
        <time>2016-05-04T11:49:09Z</time>
      </trkpt>
      <trkpt lat="40.598928" lon="-3.800819">
        <ele>626.019</ele>
        <time>2016-05-04T11:49:29Z</time>
      </trkpt>
      <trkpt lat="40.598696" lon="-3.800004">
        <ele>629.038</ele>
        <time>2016-05-04T11:49:49Z</time>
      </trkpt>
      <trkpt lat="40.598635" lon="-3.798990">
        <ele>636.035</ele>
        <time>2016-05-04T11:50:09Z</time>
      </trkpt>
      <trkpt lat="40.599829" lon="-3.797144">
        <ele>653.056</ele>
        <time>2016-05-04T11:50:29Z</time>
      </trkpt>
      <trkpt lat="40.600004" lon="-3.795991">
        <ele>657.025</ele>
        <time>2016-05-04T11:50:49Z</time>
      </trkpt>
      <trkpt lat="40.599955" lon="-3.794730">
        <ele>663.066</ele>
        <time>2016-05-04T11:51:09Z</time>
      </trkpt>
      <trkpt lat="40.599266" lon="-3.791297">
        <ele>676.072</ele>
        <time>2016-05-04T11:51:29Z</time>
      </trkpt>
      <trkpt lat="40.599152" lon="-3.790095">
        <ele>684.013</ele>
        <time>2016-05-04T11:51:49Z</time>
      </trkpt>
      <trkpt lat="40.599433" lon="-3.788438">
        <ele>692.014</ele>
        <time>2016-05-04T11:52:09Z</time>
      </trkpt>
      <trkpt lat="40.600281" lon="-3.786796">
        <ele>700.008</ele>
        <time>2016-05-04T11:52:29Z</time>
      </trkpt>
      <trkpt lat="40.600586" lon="-3.785337">
        <ele>710.068</ele>
        <time>2016-05-04T11:52:49Z</time>
      </trkpt>
      <trkpt lat="40.601792" lon="-3.783605">
        <ele>725.040</ele>
        <time>2016-05-04T11:53:09Z</time>
      </trkpt>
      <trkpt lat="40.601759" lon="-3.782848">
        <ele>725.011</ele>
        <time>2016-05-04T11:53:29Z</time>
      </trkpt>
      <trkpt lat="40.600888" lon="-3.781427">
        <ele>731.070</ele>
        <time>2016-05-04T11:53:49Z</time>
      </trkpt>
      <trkpt lat="40.601087" lon="-3.780343">
        <ele>738.057</ele>
        <time>2016-05-04T11:54:09Z</time>
      </trkpt>
      <trkpt lat="40.601771" lon="-3.779007">
        <ele>745.038</ele>
        <time>2016-05-04T11:54:29Z</time>
      </trkpt>
      <trkpt lat="40.601845" lon="-3.778567">
        <ele>746.037</ele>
        <time>2016-05-04T11:54:49Z</time>
      </trkpt>
      <trkpt lat="40.600659" lon="-3.774603">
        <ele>749.018</ele>
        <time>2016-05-04T11:55:09Z</time>
      </trkpt>
      <trkpt lat="40.599670" lon="-3.767989">
        <ele>725.069</ele>
        <time>2016-05-04T11:55:29Z</time>
      </trkpt>
      <trkpt lat="40.598598" lon="-3.765553">
        <ele>722.004</ele>
        <time>2016-05-04T11:55:49Z</time>
      </trkpt>
      <trkpt lat="40.598362" lon="-3.764126">
        <ele>717.024</ele>
        <time>2016-05-04T11:56:09Z</time>
      </trkpt>
      <trkpt lat="40.597592" lon="-3.761294">
        <ele>705.008</ele>
        <time>2016-05-04T11:56:29Z</time>
      </trkpt>
      <trkpt lat="40.597030" lon="-3.759642">
        <ele>699.017</ele>
        <time>2016-05-04T11:56:49Z</time>
      </trkpt>
      <trkpt lat="40.596484" lon="-3.758569">
        <ele>694.049</ele>
        <time>2016-05-04T11:57:09Z</time>
      </trkpt>
      <trkpt lat="40.596012" lon="-3.756691">
        <ele>683.020</ele>
        <time>2016-05-04T11:57:29Z</time>
      </trkpt>
      <trkpt lat="40.594814" lon="-3.753714">
        <ele>679.039</ele>
        <time>2016-05-04T11:57:49Z</time>
      </trkpt>
      <trkpt lat="40.594790" lon="-3.752968">
        <ele>677.046</ele>
        <time>2016-05-04T11:58:09Z</time>
      </trkpt>
      <trkpt lat="40.594399" lon="-3.752228">
        <ele>675.067</ele>
        <time>2016-05-04T11:58:29Z</time>
      </trkpt>
      <trkpt lat="40.593454" lon="-3.751198">
        <ele>673.076</ele>
        <time>2016-05-04T11:58:49Z</time>
      </trkpt>
      <trkpt lat="40.592839" lon="-3.749519">
        <ele>673.067</ele>
        <time>2016-05-04T11:59:09Z</time>
      </trkpt>
      <trkpt lat="40.592179" lon="-3.745227">
        <ele>666.033</ele>
        <time>2016-05-04T11:59:29Z</time>
      </trkpt>
      <trkpt lat="40.592061" lon="-3.743371">
        <ele>663.023</ele>
        <time>2016-05-04T11:59:49Z</time>
      </trkpt>
      <trkpt lat="40.591230" lon="-3.740072">
        <ele>648.015</ele>
        <time>2016-05-04T12:00:09Z</time>
      </trkpt>
      <trkpt lat="40.591605" lon="-3.739139">
        <ele>646.008</ele>
        <time>2016-05-04T12:00:29Z</time>
      </trkpt>
      <trkpt lat="40.591841" lon="-3.739311">
        <ele>647.014</ele>
        <time>2016-05-04T12:00:49Z</time>
      </trkpt>
      <trkpt lat="40.592480" lon="-3.739246">
        <ele>649.066</ele>
        <time>2016-05-04T12:01:09Z</time>
      </trkpt>
      <trkpt lat="40.592680" lon="-3.739005">
        <ele>650.027</ele>
        <time>2016-05-04T12:01:29Z</time>
      </trkpt>
      <trkpt lat="40.593588" lon="-3.738822">
        <ele>653.096</ele>
        <time>2016-05-04T12:01:49Z</time>
      </trkpt>
      <trkpt lat="40.594529" lon="-3.738039">
        <ele>654.073</ele>
        <time>2016-05-04T12:02:09Z</time>
      </trkpt>
      <trkpt lat="40.595128" lon="-3.737830">
        <ele>655.094</ele>
        <time>2016-05-04T12:02:29Z</time>
      </trkpt>
      <trkpt lat="40.595625" lon="-3.735598">
        <ele>671.043</ele>
        <time>2016-05-04T12:02:49Z</time>
      </trkpt>
      <trkpt lat="40.595727" lon="-3.733554">
        <ele>680.094</ele>
        <time>2016-05-04T12:03:09Z</time>
      </trkpt>
      <trkpt lat="40.596350" lon="-3.731285">
        <ele>683.088</ele>
        <time>2016-05-04T12:03:29Z</time>
      </trkpt>
      <trkpt lat="40.596521" lon="-3.730116">
        <ele>686.024</ele>
        <time>2016-05-04T12:03:49Z</time>
      </trkpt>
      <trkpt lat="40.596301" lon="-3.729070">
        <ele>690.026</ele>
        <time>2016-05-04T12:04:09Z</time>
      </trkpt>
      <trkpt lat="40.596611" lon="-3.727981">
        <ele>698.008</ele>
        <time>2016-05-04T12:04:29Z</time>
      </trkpt>
      <trkpt lat="40.596493" lon="-3.727203">
        <ele>704.019</ele>
        <time>2016-05-04T12:04:49Z</time>
      </trkpt>
      <trkpt lat="40.596635" lon="-3.726602">
        <ele>709.011</ele>
        <time>2016-05-04T12:05:09Z</time>
      </trkpt>
      <trkpt lat="40.596358" lon="-3.725014">
        <ele>716.022</ele>
        <time>2016-05-04T12:05:29Z</time>
      </trkpt>
      <trkpt lat="40.595654" lon="-3.723743">
        <ele>725.021</ele>
        <time>2016-05-04T12:05:49Z</time>
      </trkpt>
      <trkpt lat="40.595560" lon="-3.723094">
        <ele>727.088</ele>
        <time>2016-05-04T12:06:09Z</time>
      </trkpt>
      <trkpt lat="40.595853" lon="-3.720540">
        <ele>736.049</ele>
        <time>2016-05-04T12:06:29Z</time>
      </trkpt>
      <trkpt lat="40.596407" lon="-3.718588">
        <ele>734.018</ele>
        <time>2016-05-04T12:06:49Z</time>
      </trkpt>
      <trkpt lat="40.596399" lon="-3.718185">
        <ele>735.089</ele>
        <time>2016-05-04T12:07:09Z</time>
      </trkpt>
      <trkpt lat="40.596823" lon="-3.717531">
        <ele>737.064</ele>
        <time>2016-05-04T12:07:29Z</time>
      </trkpt>
      <trkpt lat="40.596362" lon="-3.716737">
        <ele>736.006</ele>
        <time>2016-05-04T12:07:49Z</time>
      </trkpt>
      <trkpt lat="40.596489" lon="-3.716887">
        <ele>736.016</ele>
        <time>2016-05-04T12:08:09Z</time>
      </trkpt>
      <trkpt lat="40.596802" lon="-3.716592">
        <ele>737.008</ele>
        <time>2016-05-04T12:08:29Z</time>
      </trkpt>
      <trkpt lat="40.597487" lon="-3.717595">
        <ele>737.017</ele>
        <time>2016-05-04T12:08:49Z</time>
      </trkpt>
      <trkpt lat="40.598004" lon="-3.716635">
        <ele>735.099</ele>
        <time>2016-05-04T12:09:09Z</time>
      </trkpt>
      <trkpt lat="40.598057" lon="-3.716244">
        <ele>733.090</ele>
        <time>2016-05-04T12:09:29Z</time>
      </trkpt>
      <trkpt lat="40.598309" lon="-3.716093">
        <ele>732.029</ele>
        <time>2016-05-04T12:09:49Z</time>
      </trkpt>
      <trkpt lat="40.599407" lon="-3.716823">
        <ele>728.016</ele>
        <time>2016-05-04T12:10:09Z</time>
      </trkpt>
      <trkpt lat="40.600415" lon="-3.709994">
        <ele>740.047</ele>
        <time>2016-05-04T12:10:29Z</time>
      </trkpt>
      <trkpt lat="40.600736" lon="-3.708257">
        <ele>727.026</ele>
        <time>2016-05-04T12:10:49Z</time>
      </trkpt>
      <trkpt lat="40.600882" lon="-3.708170">
        <ele>726.057</ele>
        <time>2016-05-04T12:11:09Z</time>
      </trkpt>
      <trkpt lat="40.601344" lon="-3.705136">
        <ele>715.049</ele>
        <time>2016-05-04T12:11:29Z</time>
      </trkpt>
      <trkpt lat="40.600898" lon="-3.704876">
        <ele>717.002</ele>
        <time>2016-05-04T12:11:49Z</time>
      </trkpt>
      <trkpt lat="40.600859" lon="-3.704560">
        <ele>717.022</ele>
        <time>2016-05-04T12:12:09Z</time>
      </trkpt>
      <trkpt lat="40.601384" lon="-3.702417">
        <ele>713.008</ele>
        <time>2016-05-04T12:12:29Z</time>
      </trkpt>
      <trkpt lat="40.601414" lon="-3.701336">
        <ele>715.035</ele>
        <time>2016-05-04T12:12:49Z</time>
      </trkpt>
    </trkseg>
  </trk>
</gpx>
